PWSweather.com
Personal Weather Stations
Station Observations
KILASHKU1
Ashkum, IL

Ashkum, IL

Lat: 40.8779862, Lon: -87.846552

Elevation: 626

Station Type: Davis Vantage Pro 2

High Low Average
Temperature 81.6°F27.6°F 68.8°F20.4°F 74.1°F23.4°F
Dew Point 70.7°F21.5°F 64.4°F18.0°F 67.7°F19.8°F
Winds 12.0 mph -19.3 mph - Calm Calm 5.4 mph 8.7 mph
Wind Gusts 24.0 mph38.6 mph -- 11.4 mph18.3 mph
Humidity 95% 63% 81%
Pressure 30.00 in1015.90 in 29.78 in1008.50 in -
Precipitation 0.00 in0.00 in - -
Hour Temp Dew Point Humidity Winds Wind Gusts Pressure Precip Precip Rate Daily Precip Total
12:00 AM 73.0°F22.8°C 66.5°F19.2°C 80% 3.0 mph S4.8 kmh S 9.0 mph14.5 kmh 30.00 in1015.9 mb 0.00 in0.0 mm 0.00 in0.0 mm 0.00 in0.0 mm
12:02 AM 73.0°F22.8°C 66.5°F19.2°C 80% 3.0 mph S4.8 kmh S 9.0 mph14.5 kmh 30.00 in1015.9 mb 0.00 in0.0 mm 0.00 in0.0 mm 0.00 in0.0 mm
12:04 AM 73.0°F22.8°C 66.5°F19.2°C 80% 4.0 mph S6.4 kmh S 9.0 mph14.5 kmh 30.00 in1015.9 mb 0.00 in0.0 mm 0.00 in0.0 mm 0.00 in0.0 mm
12:06 AM 72.9°F22.7°C 66.4°F19.1°C 80% 4.0 mph S6.4 kmh S 9.0 mph14.5 kmh 30.00 in1015.9 mb 0.00 in0.0 mm 0.00 in0.0 mm 0.00 in0.0 mm
12:08 AM 73.0°F22.8°C 66.5°F19.2°C 80% 4.0 mph S6.4 kmh S 9.0 mph14.5 kmh 30.00 in1015.9 mb 0.00 in0.0 mm 0.00 in0.0 mm 0.00 in0.0 mm
12:10 AM 72.9°F22.7°C 66.4°F19.1°C 80% 4.0 mph S6.4 kmh S 9.0 mph14.5 kmh 30.00 in1015.9 mb 0.00 in0.0 mm 0.00 in0.0 mm 0.00 in0.0 mm
12:12 AM 72.9°F22.7°C 66.4°F19.1°C 80% 4.0 mph S6.4 kmh S 9.0 mph14.5 kmh 30.00 in1015.9 mb 0.00 in0.0 mm 0.00 in0.0 mm 0.00 in0.0 mm
12:14 AM 72.9°F22.7°C 66.4°F19.1°C 80% 4.0 mph S6.4 kmh S 11.0 mph17.7 kmh 30.00 in1015.9 mb 0.00 in0.0 mm 0.00 in0.0 mm 0.00 in0.0 mm
12:16 AM 72.9°F22.7°C 66.4°F19.1°C 80% 4.0 mph S6.4 kmh S 11.0 mph17.7 kmh 30.00 in1015.9 mb 0.00 in0.0 mm 0.00 in0.0 mm 0.00 in0.0 mm
12:18 AM 72.8°F22.7°C 66.3°F19.1°C 80% 4.0 mph S6.4 kmh S 11.0 mph17.7 kmh 30.00 in1015.9 mb 0.00 in0.0 mm 0.00 in0.0 mm 0.00 in0.0 mm
12:20 AM 72.8°F22.7°C 66.3°F19.1°C 80% 4.0 mph S6.4 kmh S 11.0 mph17.7 kmh 30.00 in1015.9 mb 0.00 in0.0 mm 0.00 in0.0 mm 0.00 in0.0 mm
12:22 AM 72.8°F22.7°C 66.3°F19.1°C 80% 4.0 mph S6.4 kmh S 11.0 mph17.7 kmh 30.00 in1015.9 mb 0.00 in0.0 mm 0.00 in0.0 mm 0.00 in0.0 mm
12:24 AM 72.8°F22.7°C 66.3°F19.1°C 80% 4.0 mph S6.4 kmh S 10.0 mph16.1 kmh 30.00 in1015.9 mb 0.00 in0.0 mm 0.00 in0.0 mm 0.00 in0.0 mm
12:26 AM 72.8°F22.7°C 66.3°F19.1°C 80% 4.0 mph S6.4 kmh S 9.0 mph14.5 kmh 30.00 in1015.9 mb 0.00 in0.0 mm 0.00 in0.0 mm 0.00 in0.0 mm
12:28 AM 72.8°F22.7°C 66.3°F19.1°C 80% 4.0 mph S6.4 kmh S 8.0 mph12.9 kmh 30.00 in1015.9 mb 0.00 in0.0 mm 0.00 in0.0 mm 0.00 in0.0 mm
12:30 AM 72.8°F22.7°C 66.6°F19.2°C 81% 4.0 mph S6.4 kmh S 8.0 mph12.9 kmh 30.00 in1015.9 mb 0.00 in0.0 mm 0.00 in0.0 mm 0.00 in0.0 mm
12:32 AM 72.7°F22.6°C 66.2°F19.0°C 80% 4.0 mph S6.4 kmh S 8.0 mph12.9 kmh 30.00 in1015.9 mb 0.00 in0.0 mm 0.00 in0.0 mm 0.00 in0.0 mm
12:34 AM 72.7°F22.6°C 66.2°F19.0°C 80% 3.0 mph S4.8 kmh S 6.0 mph9.7 kmh 30.00 in1015.9 mb 0.00 in0.0 mm 0.00 in0.0 mm 0.00 in0.0 mm
12:36 AM 72.7°F22.6°C 66.2°F19.0°C 80% 4.0 mph S6.4 kmh S 10.0 mph16.1 kmh 30.00 in1015.9 mb 0.00 in0.0 mm 0.00 in0.0 mm 0.00 in0.0 mm
12:38 AM 72.6°F22.6°C 66.1°F18.9°C 80% 4.0 mph S6.4 kmh S 10.0 mph16.1 kmh 30.00 in1015.9 mb 0.00 in0.0 mm 0.00 in0.0 mm 0.00 in0.0 mm
12:40 AM 72.7°F22.6°C 66.2°F19.0°C 80% 4.0 mph S6.4 kmh S 10.0 mph16.1 kmh 30.00 in1015.9 mb 0.00 in0.0 mm 0.00 in0.0 mm 0.00 in0.0 mm
12:42 AM 72.7°F22.6°C 66.2°F19.0°C 80% 4.0 mph S6.4 kmh S 11.0 mph17.7 kmh 30.00 in1015.9 mb 0.00 in0.0 mm 0.00 in0.0 mm 0.00 in0.0 mm
12:44 AM 72.7°F22.6°C 66.2°F19.0°C 80% 5.0 mph S8.0 kmh S 11.0 mph17.7 kmh 30.00 in1015.9 mb 0.00 in0.0 mm 0.00 in0.0 mm 0.00 in0.0 mm
12:46 AM 72.7°F22.6°C 66.2°F19.0°C 80% 5.0 mph S8.0 kmh S 11.0 mph17.7 kmh 30.00 in1015.9 mb 0.00 in0.0 mm 0.00 in0.0 mm 0.00 in0.0 mm
12:48 AM 72.8°F22.7°C 66.3°F19.1°C 80% 5.0 mph S8.0 kmh S 11.0 mph17.7 kmh 30.00 in1015.9 mb 0.00 in0.0 mm 0.00 in0.0 mm 0.00 in0.0 mm
12:50 AM 72.8°F22.7°C 66.3°F19.1°C 80% 5.0 mph S8.0 kmh S 11.0 mph17.7 kmh 30.00 in1015.9 mb 0.00 in0.0 mm 0.00 in0.0 mm 0.00 in0.0 mm
12:52 AM 72.7°F22.6°C 66.2°F19.0°C 80% 4.0 mph S6.4 kmh S 10.0 mph16.1 kmh 30.00 in1015.9 mb 0.00 in0.0 mm 0.00 in0.0 mm 0.00 in0.0 mm
12:54 AM 72.7°F22.6°C 66.5°F19.2°C 81% 4.0 mph S6.4 kmh S 10.0 mph16.1 kmh 30.00 in1015.9 mb 0.00 in0.0 mm 0.00 in0.0 mm 0.00 in0.0 mm
12:56 AM 72.6°F22.6°C 66.1°F18.9°C 80% 4.0 mph S6.4 kmh S 10.0 mph16.1 kmh 30.00 in1015.9 mb 0.00 in0.0 mm 0.00 in0.0 mm 0.00 in0.0 mm
12:58 AM 72.7°F22.6°C 66.2°F19.0°C 80% 4.0 mph S6.4 kmh S 10.0 mph16.1 kmh 30.00 in1015.9 mb 0.00 in0.0 mm 0.00 in0.0 mm 0.00 in0.0 mm
01:00 AM 72.6°F22.6°C 66.4°F19.1°C 81% 4.0 mph S6.4 kmh S 10.0 mph16.1 kmh 30.00 in1015.9 mb 0.00 in0.0 mm 0.00 in0.0 mm 0.00 in0.0 mm
01:02 AM 72.6°F22.6°C 66.1°F18.9°C 80% 4.0 mph S6.4 kmh S 10.0 mph16.1 kmh 30.00 in1015.9 mb 0.00 in0.0 mm 0.00 in0.0 mm 0.00 in0.0 mm
01:04 AM 72.6°F22.6°C 66.4°F19.1°C 81% 4.0 mph S6.4 kmh S 9.0 mph14.5 kmh 30.00 in1015.9 mb 0.00 in0.0 mm 0.00 in0.0 mm 0.00 in0.0 mm
01:06 AM 72.6°F22.6°C 66.4°F19.1°C 81% 4.0 mph S6.4 kmh S 9.0 mph14.5 kmh 30.00 in1015.9 mb 0.00 in0.0 mm 0.00 in0.0 mm 0.00 in0.0 mm
01:08 AM 72.6°F22.6°C 66.4°F19.1°C 81% 3.0 mph S4.8 kmh S 9.0 mph14.5 kmh 30.00 in1015.9 mb 0.00 in0.0 mm 0.00 in0.0 mm 0.00 in0.0 mm
01:10 AM 72.6°F22.6°C 66.4°F19.1°C 81% 3.0 mph S4.8 kmh S 9.0 mph14.5 kmh 30.00 in1015.9 mb 0.00 in0.0 mm 0.00 in0.0 mm 0.00 in0.0 mm
01:12 AM 72.5°F22.5°C 66.3°F19.1°C 81% 3.0 mph S4.8 kmh S 5.0 mph8.0 kmh 30.00 in1015.9 mb 0.00 in0.0 mm 0.00 in0.0 mm 0.00 in0.0 mm
01:14 AM 72.5°F22.5°C 66.3°F19.1°C 81% 3.0 mph S4.8 kmh S 9.0 mph14.5 kmh 30.00 in1015.9 mb 0.00 in0.0 mm 0.00 in0.0 mm 0.00 in0.0 mm
01:16 AM 72.4°F22.4°C 66.2°F19.0°C 81% 3.0 mph S4.8 kmh S 9.0 mph14.5 kmh 30.00 in1015.9 mb 0.00 in0.0 mm 0.00 in0.0 mm 0.00 in0.0 mm
01:18 AM 72.4°F22.4°C 66.6°F19.2°C 82% 3.0 mph S4.8 kmh S 9.0 mph14.5 kmh 30.00 in1015.9 mb 0.00 in0.0 mm 0.00 in0.0 mm 0.00 in0.0 mm
01:20 AM 72.4°F22.4°C 66.6°F19.2°C 82% 3.0 mph S4.8 kmh S 9.0 mph14.5 kmh 30.00 in1015.9 mb 0.00 in0.0 mm 0.00 in0.0 mm 0.00 in0.0 mm
01:22 AM 72.3°F22.4°C 66.5°F19.2°C 82% 3.0 mph S4.8 kmh S 9.0 mph14.5 kmh 30.00 in1015.9 mb 0.00 in0.0 mm 0.00 in0.0 mm 0.00 in0.0 mm
01:24 AM 72.3°F22.4°C 66.5°F19.2°C 82% 3.0 mph S4.8 kmh S 9.0 mph14.5 kmh 30.00 in1015.9 mb 0.00 in0.0 mm 0.00 in0.0 mm 0.00 in0.0 mm
01:26 AM 72.3°F22.4°C 66.5°F19.2°C 82% 3.0 mph S4.8 kmh S 8.0 mph12.9 kmh 30.00 in1015.9 mb 0.00 in0.0 mm 0.00 in0.0 mm 0.00 in0.0 mm
01:28 AM 72.3°F22.4°C 66.5°F19.2°C 82% 3.0 mph S4.8 kmh S 8.0 mph12.9 kmh 30.00 in1015.9 mb 0.00 in0.0 mm 0.00 in0.0 mm 0.00 in0.0 mm
01:30 AM 72.3°F22.4°C 66.5°F19.2°C 82% 3.0 mph S4.8 kmh S 7.0 mph11.3 kmh 30.00 in1015.9 mb 0.00 in0.0 mm 0.00 in0.0 mm 0.00 in0.0 mm
01:32 AM 72.3°F22.4°C 66.5°F19.2°C 82% 3.0 mph S4.8 kmh S 7.0 mph11.3 kmh 30.00 in1015.9 mb 0.00 in0.0 mm 0.00 in0.0 mm 0.00 in0.0 mm
01:34 AM 72.3°F22.4°C 66.5°F19.2°C 82% 3.0 mph S4.8 kmh S 7.0 mph11.3 kmh 30.00 in1015.9 mb 0.00 in0.0 mm 0.00 in0.0 mm 0.00 in0.0 mm
01:36 AM 72.2°F22.3°C 66.4°F19.1°C 82% 3.0 mph S4.8 kmh S 7.0 mph11.3 kmh 30.00 in1015.9 mb 0.00 in0.0 mm 0.00 in0.0 mm 0.00 in0.0 mm
01:38 AM 72.2°F22.3°C 66.7°F19.3°C 83% 3.0 mph S4.8 kmh S 7.0 mph11.3 kmh 30.00 in1015.9 mb 0.00 in0.0 mm 0.00 in0.0 mm 0.00 in0.0 mm
01:40 AM 72.1°F22.3°C 66.6°F19.2°C 83% 3.0 mph S4.8 kmh S 7.0 mph11.3 kmh 30.00 in1015.9 mb 0.00 in0.0 mm 0.00 in0.0 mm 0.00 in0.0 mm
01:42 AM 72.1°F22.3°C 66.6°F19.2°C 83% 2.0 mph S3.2 kmh S 5.0 mph8.0 kmh 30.00 in1015.9 mb 0.00 in0.0 mm 0.00 in0.0 mm 0.00 in0.0 mm
01:44 AM 72.1°F22.3°C 67.0°F19.4°C 84% 2.0 mph S3.2 kmh S 5.0 mph8.0 kmh 30.00 in1015.9 mb 0.00 in0.0 mm 0.00 in0.0 mm 0.00 in0.0 mm
01:46 AM 72.0°F22.2°C 66.9°F19.4°C 84% 1.0 mph S1.6 kmh S 4.0 mph6.4 kmh 30.00 in1015.9 mb 0.00 in0.0 mm 0.00 in0.0 mm 0.00 in0.0 mm
01:48 AM 71.9°F22.2°C 66.8°F19.3°C 84% 1.0 mph SW1.6 kmh SW 3.0 mph4.8 kmh 30.00 in1015.9 mb 0.00 in0.0 mm 0.00 in0.0 mm 0.00 in0.0 mm
01:50 AM 71.8°F22.1°C 67.0°F19.4°C 85% 1.0 mph SW1.6 kmh SW 2.0 mph3.2 kmh 30.00 in1015.9 mb 0.00 in0.0 mm 0.00 in0.0 mm 0.00 in0.0 mm
01:52 AM 71.7°F22.1°C 66.9°F19.4°C 85% Calm Calm 2.0 mph3.2 kmh 30.00 in1015.9 mb 0.00 in0.0 mm 0.00 in0.0 mm 0.00 in0.0 mm
01:54 AM 71.6°F22.0°C 66.8°F19.3°C 85% Calm Calm 2.0 mph3.2 kmh 30.00 in1015.9 mb 0.00 in0.0 mm 0.00 in0.0 mm 0.00 in0.0 mm
01:56 AM 71.6°F22.0°C 67.2°F19.6°C 86% Calm Calm 2.0 mph3.2 kmh 30.00 in1015.9 mb 0.00 in0.0 mm 0.00 in0.0 mm 0.00 in0.0 mm
01:58 AM 71.5°F21.9°C 67.1°F19.5°C 86% Calm Calm -- 30.00 in1015.9 mb 0.00 in0.0 mm 0.00 in0.0 mm 0.00 in0.0 mm
02:00 AM 71.3°F21.8°C 66.9°F19.4°C 86% Calm Calm -- 30.00 in1015.9 mb 0.00 in0.0 mm 0.00 in0.0 mm 0.00 in0.0 mm
02:02 AM 71.2°F21.8°C 66.8°F19.3°C 86% Calm Calm -- 30.00 in1015.9 mb 0.00 in0.0 mm 0.00 in0.0 mm 0.00 in0.0 mm
02:04 AM 71.2°F21.8°C 67.1°F19.5°C 87% Calm Calm -- 30.00 in1015.9 mb 0.00 in0.0 mm 0.00 in0.0 mm 0.00 in0.0 mm
02:06 AM 71.1°F21.7°C 67.0°F19.4°C 87% Calm Calm -- 30.00 in1015.9 mb 0.00 in0.0 mm 0.00 in0.0 mm 0.00 in0.0 mm
02:08 AM 71.1°F21.7°C 67.4°F19.7°C 88% Calm Calm -- 30.00 in1015.9 mb 0.00 in0.0 mm 0.00 in0.0 mm 0.00 in0.0 mm
02:10 AM 71.0°F21.7°C 67.3°F19.6°C 88% Calm Calm -- 30.00 in1015.9 mb 0.00 in0.0 mm 0.00 in0.0 mm 0.00 in0.0 mm
02:12 AM 71.0°F21.7°C 67.3°F19.6°C 88% Calm Calm -- 29.99 in1015.6 mb 0.00 in0.0 mm 0.00 in0.0 mm 0.00 in0.0 mm
02:14 AM 70.9°F21.6°C 67.2°F19.6°C 88% Calm Calm -- 29.99 in1015.6 mb 0.00 in0.0 mm 0.00 in0.0 mm 0.00 in0.0 mm
02:16 AM 70.9°F21.6°C 67.2°F19.6°C 88% Calm Calm -- 29.99 in1015.6 mb 0.00 in0.0 mm 0.00 in0.0 mm 0.00 in0.0 mm
02:18 AM 70.8°F21.6°C 67.1°F19.5°C 88% Calm Calm -- 29.99 in1015.6 mb 0.00 in0.0 mm 0.00 in0.0 mm 0.00 in0.0 mm
02:20 AM 70.7°F21.5°C 67.0°F19.4°C 88% Calm Calm -- 29.99 in1015.6 mb 0.00 in0.0 mm 0.00 in0.0 mm 0.00 in0.0 mm
02:22 AM 70.7°F21.5°C 67.0°F19.4°C 88% Calm Calm -- 29.99 in1015.6 mb 0.00 in0.0 mm 0.00 in0.0 mm 0.00 in0.0 mm
02:24 AM 70.6°F21.4°C 66.9°F19.4°C 88% Calm Calm -- 29.99 in1015.6 mb 0.00 in0.0 mm 0.00 in0.0 mm 0.00 in0.0 mm
02:26 AM 70.5°F21.4°C 67.1°F19.5°C 89% Calm Calm -- 29.99 in1015.6 mb 0.00 in0.0 mm 0.00 in0.0 mm 0.00 in0.0 mm
02:28 AM 70.5°F21.4°C 67.1°F19.5°C 89% Calm Calm -- 29.99 in1015.6 mb 0.00 in0.0 mm 0.00 in0.0 mm 0.00 in0.0 mm
02:30 AM 70.4°F21.3°C 67.0°F19.4°C 89% Calm Calm -- 29.99 in1015.6 mb 0.00 in0.0 mm 0.00 in0.0 mm 0.00 in0.0 mm
02:32 AM 70.4°F21.3°C 67.3°F19.6°C 90% Calm Calm -- 29.99 in1015.6 mb 0.00 in0.0 mm 0.00 in0.0 mm 0.00 in0.0 mm
02:34 AM 70.3°F21.3°C 67.2°F19.6°C 90% Calm Calm -- 29.99 in1015.6 mb 0.00 in0.0 mm 0.00 in0.0 mm 0.00 in0.0 mm
02:36 AM 70.3°F21.3°C 67.2°F19.6°C 90% Calm Calm -- 29.99 in1015.6 mb 0.00 in0.0 mm 0.00 in0.0 mm 0.00 in0.0 mm
02:38 AM 70.2°F21.2°C 67.1°F19.5°C 90% Calm Calm -- 29.99 in1015.6 mb 0.00 in0.0 mm 0.00 in0.0 mm 0.00 in0.0 mm
02:40 AM 70.1°F21.2°C 67.0°F19.4°C 90% Calm Calm -- 29.99 in1015.6 mb 0.00 in0.0 mm 0.00 in0.0 mm 0.00 in0.0 mm
02:42 AM 70.1°F21.2°C 67.0°F19.4°C 90% Calm Calm -- 29.98 in1015.2 mb 0.00 in0.0 mm 0.00 in0.0 mm 0.00 in0.0 mm
02:44 AM 70.0°F21.1°C 66.9°F19.4°C 90% Calm Calm -- 29.98 in1015.2 mb 0.00 in0.0 mm 0.00 in0.0 mm 0.00 in0.0 mm
02:46 AM 70.0°F21.1°C 66.9°F19.4°C 90% Calm Calm -- 29.98 in1015.2 mb 0.00 in0.0 mm 0.00 in0.0 mm 0.00 in0.0 mm
02:48 AM 70.0°F21.1°C 67.3°F19.6°C 91% Calm Calm -- 29.98 in1015.2 mb 0.00 in0.0 mm 0.00 in0.0 mm 0.00 in0.0 mm
02:50 AM 70.1°F21.2°C 67.3°F19.6°C 91% Calm Calm -- 29.98 in1015.2 mb 0.00 in0.0 mm 0.00 in0.0 mm 0.00 in0.0 mm
02:52 AM 70.1°F21.2°C 67.3°F19.6°C 91% Calm Calm -- 29.98 in1015.2 mb 0.00 in0.0 mm 0.00 in0.0 mm 0.00 in0.0 mm
02:54 AM 70.1°F21.2°C 67.3°F19.6°C 91% Calm Calm -- 29.98 in1015.2 mb 0.00 in0.0 mm 0.00 in0.0 mm 0.00 in0.0 mm
02:56 AM 70.0°F21.1°C 67.3°F19.6°C 91% Calm Calm -- 29.98 in1015.2 mb 0.00 in0.0 mm 0.00 in0.0 mm 0.00 in0.0 mm
02:58 AM 70.0°F21.1°C 67.3°F19.6°C 91% Calm Calm -- 29.98 in1015.2 mb 0.00 in0.0 mm 0.00 in0.0 mm 0.00 in0.0 mm
03:00 AM 70.0°F21.1°C 67.3°F19.6°C 91% Calm Calm -- 29.98 in1015.2 mb 0.00 in0.0 mm 0.00 in0.0 mm 0.00 in0.0 mm
03:02 AM 70.0°F21.1°C 67.3°F19.6°C 91% Calm Calm -- 29.98 in1015.2 mb 0.00 in0.0 mm 0.00 in0.0 mm 0.00 in0.0 mm
03:04 AM 69.9°F21.1°C 67.2°F19.6°C 91% Calm Calm -- 29.98 in1015.2 mb 0.00 in0.0 mm 0.00 in0.0 mm 0.00 in0.0 mm
03:06 AM 69.9°F21.1°C 67.5°F19.7°C 92% Calm Calm -- 29.98 in1015.2 mb 0.00 in0.0 mm 0.00 in0.0 mm 0.00 in0.0 mm
03:08 AM 69.9°F21.1°C 67.5°F19.7°C 92% Calm Calm -- 29.97 in1014.9 mb 0.00 in0.0 mm 0.00 in0.0 mm 0.00 in0.0 mm
03:10 AM 69.8°F21.0°C 67.4°F19.7°C 92% Calm Calm -- 29.97 in1014.9 mb 0.00 in0.0 mm 0.00 in0.0 mm 0.00 in0.0 mm
03:12 AM 69.8°F21.0°C 67.4°F19.7°C 92% Calm Calm -- 29.97 in1014.9 mb 0.00 in0.0 mm 0.00 in0.0 mm 0.00 in0.0 mm
03:14 AM 69.8°F21.0°C 67.4°F19.7°C 92% Calm Calm -- 29.97 in1014.9 mb 0.00 in0.0 mm 0.00 in0.0 mm 0.00 in0.0 mm
03:16 AM 69.7°F20.9°C 67.3°F19.6°C 92% Calm Calm -- 29.97 in1014.9 mb 0.00 in0.0 mm 0.00 in0.0 mm 0.00 in0.0 mm
03:18 AM 69.6°F20.9°C 67.2°F19.6°C 92% Calm Calm -- 29.97 in1014.9 mb 0.00 in0.0 mm 0.00 in0.0 mm 0.00 in0.0 mm
03:20 AM 69.6°F20.9°C 67.2°F19.6°C 92% Calm Calm -- 29.97 in1014.9 mb 0.00 in0.0 mm 0.00 in0.0 mm 0.00 in0.0 mm
03:22 AM 69.5°F20.8°C 67.1°F19.5°C 92% Calm Calm -- 29.97 in1014.9 mb 0.00 in0.0 mm 0.00 in0.0 mm 0.00 in0.0 mm
03:24 AM 69.5°F20.8°C 67.1°F19.5°C 92% Calm Calm -- 29.97 in1014.9 mb 0.00 in0.0 mm 0.00 in0.0 mm 0.00 in0.0 mm
03:26 AM 69.4°F20.8°C 67.0°F19.4°C 92% Calm Calm 2.0 mph3.2 kmh 29.97 in1014.9 mb 0.00 in0.0 mm 0.00 in0.0 mm 0.00 in0.0 mm
03:28 AM 69.4°F20.8°C 67.0°F19.4°C 92% Calm Calm 2.0 mph3.2 kmh 29.97 in1014.9 mb 0.00 in0.0 mm 0.00 in0.0 mm 0.00 in0.0 mm
03:30 AM 69.4°F20.8°C 67.0°F19.4°C 92% Calm Calm 2.0 mph3.2 kmh 29.97 in1014.9 mb 0.00 in0.0 mm 0.00 in0.0 mm 0.00 in0.0 mm
03:32 AM 69.4°F20.8°C 66.7°F19.3°C 91% Calm Calm 3.0 mph4.8 kmh 29.97 in1014.9 mb 0.00 in0.0 mm 0.00 in0.0 mm 0.00 in0.0 mm
03:34 AM 69.5°F20.8°C 66.8°F19.3°C 91% Calm Calm 3.0 mph4.8 kmh 29.97 in1014.9 mb 0.00 in0.0 mm 0.00 in0.0 mm 0.00 in0.0 mm
03:36 AM 69.5°F20.8°C 66.4°F19.1°C 90% 1.0 mph S1.6 kmh S 3.0 mph4.8 kmh 29.97 in1014.9 mb 0.00 in0.0 mm 0.00 in0.0 mm 0.00 in0.0 mm
03:38 AM 69.6°F20.9°C 66.5°F19.2°C 90% 1.0 mph S1.6 kmh S 3.0 mph4.8 kmh 29.97 in1014.9 mb 0.00 in0.0 mm 0.00 in0.0 mm 0.00 in0.0 mm
03:40 AM 69.7°F20.9°C 66.6°F19.2°C 90% 1.0 mph S1.6 kmh S 5.0 mph8.0 kmh 29.97 in1014.9 mb 0.00 in0.0 mm 0.00 in0.0 mm 0.00 in0.0 mm
03:42 AM 69.8°F21.0°C 66.4°F19.1°C 89% 1.0 mph SSE1.6 kmh SSE 5.0 mph8.0 kmh 29.97 in1014.9 mb 0.00 in0.0 mm 0.00 in0.0 mm 0.00 in0.0 mm
03:44 AM 69.9°F21.1°C 66.5°F19.2°C 89% 1.0 mph SSE1.6 kmh SSE 5.0 mph8.0 kmh 29.97 in1014.9 mb 0.00 in0.0 mm 0.00 in0.0 mm 0.00 in0.0 mm
03:46 AM 70.0°F21.1°C 66.3°F19.1°C 88% 1.0 mph SSE1.6 kmh SSE 5.0 mph8.0 kmh 29.97 in1014.9 mb 0.00 in0.0 mm 0.00 in0.0 mm 0.00 in0.0 mm
03:48 AM 70.1°F21.2°C 66.0°F18.9°C 87% 2.0 mph S3.2 kmh S 5.0 mph8.0 kmh 29.96 in1014.6 mb 0.00 in0.0 mm 0.00 in0.0 mm 0.00 in0.0 mm
03:50 AM 70.3°F21.3°C 66.2°F19.0°C 87% 2.0 mph S3.2 kmh S 6.0 mph9.7 kmh 29.96 in1014.6 mb 0.00 in0.0 mm 0.00 in0.0 mm 0.00 in0.0 mm
03:52 AM 70.4°F21.3°C 66.3°F19.1°C 87% 2.0 mph S3.2 kmh S 6.0 mph9.7 kmh 29.96 in1014.6 mb 0.00 in0.0 mm 0.00 in0.0 mm 0.00 in0.0 mm
03:54 AM 70.6°F21.4°C 66.2°F19.0°C 86% 2.0 mph S3.2 kmh S 6.0 mph9.7 kmh 29.96 in1014.6 mb 0.00 in0.0 mm 0.00 in0.0 mm 0.00 in0.0 mm
03:56 AM 70.7°F21.5°C 66.3°F19.1°C 86% 2.0 mph S3.2 kmh S 6.0 mph9.7 kmh 29.96 in1014.6 mb 0.00 in0.0 mm 0.00 in0.0 mm 0.00 in0.0 mm
03:58 AM 70.8°F21.6°C 66.1°F18.9°C 85% 2.0 mph S3.2 kmh S 6.0 mph9.7 kmh 29.96 in1014.6 mb 0.00 in0.0 mm 0.00 in0.0 mm 0.00 in0.0 mm
04:00 AM 70.9°F21.6°C 66.2°F19.0°C 85% 2.0 mph S3.2 kmh S 5.0 mph8.0 kmh 29.96 in1014.6 mb 0.00 in0.0 mm 0.00 in0.0 mm 0.00 in0.0 mm
04:02 AM 71.1°F21.7°C 66.0°F18.9°C 84% 2.0 mph S3.2 kmh S 5.0 mph8.0 kmh 29.96 in1014.6 mb 0.00 in0.0 mm 0.00 in0.0 mm 0.00 in0.0 mm
04:04 AM 71.2°F21.8°C 66.1°F18.9°C 84% 3.0 mph S4.8 kmh S 5.0 mph8.0 kmh 29.96 in1014.6 mb 0.00 in0.0 mm 0.00 in0.0 mm 0.00 in0.0 mm
04:06 AM 71.3°F21.8°C 66.2°F19.0°C 84% 3.0 mph S4.8 kmh S 5.0 mph8.0 kmh 29.96 in1014.6 mb 0.00 in0.0 mm 0.00 in0.0 mm 0.00 in0.0 mm
04:08 AM 71.5°F21.9°C 66.1°F18.9°C 83% 2.0 mph S3.2 kmh S 5.0 mph8.0 kmh 29.96 in1014.6 mb 0.00 in0.0 mm 0.00 in0.0 mm 0.00 in0.0 mm
04:10 AM 71.5°F21.9°C 66.1°F18.9°C 83% 2.0 mph S3.2 kmh S 5.0 mph8.0 kmh 29.96 in1014.6 mb 0.00 in0.0 mm 0.00 in0.0 mm 0.00 in0.0 mm
04:12 AM 71.5°F21.9°C 66.4°F19.1°C 84% 2.0 mph S3.2 kmh S 5.0 mph8.0 kmh 29.96 in1014.6 mb 0.00 in0.0 mm 0.00 in0.0 mm 0.00 in0.0 mm
04:14 AM 71.6°F22.0°C 66.2°F19.0°C 83% 2.0 mph S3.2 kmh S 4.0 mph6.4 kmh 29.96 in1014.6 mb 0.00 in0.0 mm 0.00 in0.0 mm 0.00 in0.0 mm
04:16 AM 71.6°F22.0°C 66.2°F19.0°C 83% 2.0 mph S3.2 kmh S 5.0 mph8.0 kmh 29.96 in1014.6 mb 0.00 in0.0 mm 0.00 in0.0 mm 0.00 in0.0 mm
04:18 AM 71.6°F22.0°C 65.8°F18.8°C 82% 3.0 mph S4.8 kmh S 6.0 mph9.7 kmh 29.96 in1014.6 mb 0.00 in0.0 mm 0.00 in0.0 mm 0.00 in0.0 mm
04:20 AM 71.7°F22.1°C 66.3°F19.1°C 83% 3.0 mph S4.8 kmh S 6.0 mph9.7 kmh 29.96 in1014.6 mb 0.00 in0.0 mm 0.00 in0.0 mm 0.00 in0.0 mm
04:22 AM 71.7°F22.1°C 65.9°F18.8°C 82% 3.0 mph S4.8 kmh S 6.0 mph9.7 kmh 29.96 in1014.6 mb 0.00 in0.0 mm 0.00 in0.0 mm 0.00 in0.0 mm
04:24 AM 71.8°F22.1°C 66.0°F18.9°C 82% 3.0 mph S4.8 kmh S 6.0 mph9.7 kmh 29.96 in1014.6 mb 0.00 in0.0 mm 0.00 in0.0 mm 0.00 in0.0 mm
04:26 AM 71.8°F22.1°C 66.0°F18.9°C 82% 3.0 mph S4.8 kmh S 6.0 mph9.7 kmh 29.96 in1014.6 mb 0.00 in0.0 mm 0.00 in0.0 mm 0.00 in0.0 mm
04:28 AM 71.9°F22.2°C 66.1°F18.9°C 82% 3.0 mph S4.8 kmh S 6.0 mph9.7 kmh 29.96 in1014.6 mb 0.00 in0.0 mm 0.00 in0.0 mm 0.00 in0.0 mm
04:30 AM 71.9°F22.2°C 65.8°F18.8°C 81% 3.0 mph S4.8 kmh S 6.0 mph9.7 kmh 29.96 in1014.6 mb 0.00 in0.0 mm 0.00 in0.0 mm 0.00 in0.0 mm
04:32 AM 72.0°F22.2°C 65.8°F18.8°C 81% 3.0 mph S4.8 kmh S 6.0 mph9.7 kmh 29.96 in1014.6 mb 0.00 in0.0 mm 0.00 in0.0 mm 0.00 in0.0 mm
04:34 AM 72.0°F22.2°C 65.8°F18.8°C 81% 3.0 mph S4.8 kmh S 9.0 mph14.5 kmh 29.96 in1014.6 mb 0.00 in0.0 mm 0.00 in0.0 mm 0.00 in0.0 mm
04:36 AM 72.1°F22.3°C 65.9°F18.8°C 81% 3.0 mph S4.8 kmh S 9.0 mph14.5 kmh 29.96 in1014.6 mb 0.00 in0.0 mm 0.00 in0.0 mm 0.00 in0.0 mm
04:38 AM 72.2°F22.3°C 66.0°F18.9°C 81% 3.0 mph S4.8 kmh S 9.0 mph14.5 kmh 29.96 in1014.6 mb 0.00 in0.0 mm 0.00 in0.0 mm 0.00 in0.0 mm
04:40 AM 72.2°F22.3°C 66.0°F18.9°C 81% 3.0 mph S4.8 kmh S 9.0 mph14.5 kmh 29.96 in1014.6 mb 0.00 in0.0 mm 0.00 in0.0 mm 0.00 in0.0 mm
04:42 AM 72.1°F22.3°C 65.9°F18.8°C 81% 3.0 mph S4.8 kmh S 9.0 mph14.5 kmh 29.96 in1014.6 mb 0.00 in0.0 mm 0.00 in0.0 mm 0.00 in0.0 mm
04:44 AM 72.2°F22.3°C 66.0°F18.9°C 81% 3.0 mph S4.8 kmh S 8.0 mph12.9 kmh 29.96 in1014.6 mb 0.00 in0.0 mm 0.00 in0.0 mm 0.00 in0.0 mm
04:46 AM 72.2°F22.3°C 66.0°F18.9°C 81% 3.0 mph S4.8 kmh S 8.0 mph12.9 kmh 29.96 in1014.6 mb 0.00 in0.0 mm 0.00 in0.0 mm 0.00 in0.0 mm
04:48 AM 72.2°F22.3°C 66.0°F18.9°C 81% 3.0 mph S4.8 kmh S 8.0 mph12.9 kmh 29.96 in1014.6 mb 0.00 in0.0 mm 0.00 in0.0 mm 0.00 in0.0 mm
04:50 AM 72.3°F22.4°C 66.1°F18.9°C 81% 3.0 mph S4.8 kmh S 8.0 mph12.9 kmh 29.96 in1014.6 mb 0.00 in0.0 mm 0.00 in0.0 mm 0.00 in0.0 mm
04:52 AM 72.4°F22.4°C 66.2°F19.0°C 81% 3.0 mph S4.8 kmh S 8.0 mph12.9 kmh 29.95 in1014.2 mb 0.00 in0.0 mm 0.00 in0.0 mm 0.00 in0.0 mm
04:54 AM 72.4°F22.4°C 65.9°F18.8°C 80% 3.0 mph S4.8 kmh S 9.0 mph14.5 kmh 29.95 in1014.2 mb 0.00 in0.0 mm 0.00 in0.0 mm 0.00 in0.0 mm
04:56 AM 72.4°F22.4°C 65.9°F18.8°C 80% 4.0 mph S6.4 kmh S 9.0 mph14.5 kmh 29.95 in1014.2 mb 0.00 in0.0 mm 0.00 in0.0 mm 0.00 in0.0 mm
04:58 AM 72.5°F22.5°C 66.0°F18.9°C 80% 4.0 mph S6.4 kmh S 9.0 mph14.5 kmh 29.95 in1014.2 mb 0.00 in0.0 mm 0.00 in0.0 mm 0.00 in0.0 mm
05:00 AM 72.6°F22.6°C 66.1°F18.9°C 80% 4.0 mph S6.4 kmh S 9.0 mph14.5 kmh 29.95 in1014.2 mb 0.00 in0.0 mm 0.00 in0.0 mm 0.00 in0.0 mm
05:02 AM 72.6°F22.6°C 66.1°F18.9°C 80% 4.0 mph S6.4 kmh S 9.0 mph14.5 kmh 29.95 in1014.2 mb 0.00 in0.0 mm 0.00 in0.0 mm 0.00 in0.0 mm
05:04 AM 72.6°F22.6°C 66.1°F18.9°C 80% 4.0 mph S6.4 kmh S 8.0 mph12.9 kmh 29.95 in1014.2 mb 0.00 in0.0 mm 0.00 in0.0 mm 0.00 in0.0 mm
05:06 AM 72.6°F22.6°C 65.7°F18.7°C 79% 4.0 mph S6.4 kmh S 8.0 mph12.9 kmh 29.95 in1014.2 mb 0.00 in0.0 mm 0.00 in0.0 mm 0.00 in0.0 mm
05:08 AM 72.7°F22.6°C 66.2°F19.0°C 80% 4.0 mph S6.4 kmh S 8.0 mph12.9 kmh 29.96 in1014.6 mb 0.00 in0.0 mm 0.00 in0.0 mm 0.00 in0.0 mm
05:10 AM 72.6°F22.6°C 66.1°F18.9°C 80% 4.0 mph S6.4 kmh S 8.0 mph12.9 kmh 29.95 in1014.2 mb 0.00 in0.0 mm 0.00 in0.0 mm 0.00 in0.0 mm
05:12 AM 72.6°F22.6°C 66.1°F18.9°C 80% 4.0 mph S6.4 kmh S 8.0 mph12.9 kmh 29.95 in1014.2 mb 0.00 in0.0 mm 0.00 in0.0 mm 0.00 in0.0 mm
05:14 AM 72.6°F22.6°C 66.1°F18.9°C 80% 4.0 mph S6.4 kmh S 8.0 mph12.9 kmh 29.96 in1014.6 mb 0.00 in0.0 mm 0.00 in0.0 mm 0.00 in0.0 mm
05:16 AM 72.6°F22.6°C 66.1°F18.9°C 80% 4.0 mph S6.4 kmh S 8.0 mph12.9 kmh 29.95 in1014.2 mb 0.00 in0.0 mm 0.00 in0.0 mm 0.00 in0.0 mm
05:18 AM 72.5°F22.5°C 66.0°F18.9°C 80% 3.0 mph S4.8 kmh S 8.0 mph12.9 kmh 29.95 in1014.2 mb 0.00 in0.0 mm 0.00 in0.0 mm 0.00 in0.0 mm
05:20 AM 72.5°F22.5°C 66.0°F18.9°C 80% 3.0 mph S4.8 kmh S 8.0 mph12.9 kmh 29.95 in1014.2 mb 0.00 in0.0 mm 0.00 in0.0 mm 0.00 in0.0 mm
05:22 AM 72.5°F22.5°C 66.0°F18.9°C 80% 3.0 mph S4.8 kmh S 8.0 mph12.9 kmh 29.96 in1014.6 mb 0.00 in0.0 mm 0.00 in0.0 mm 0.00 in0.0 mm
05:24 AM 72.4°F22.4°C 65.9°F18.8°C 80% 3.0 mph S4.8 kmh S 9.0 mph14.5 kmh 29.96 in1014.6 mb 0.00 in0.0 mm 0.00 in0.0 mm 0.00 in0.0 mm
05:26 AM 72.4°F22.4°C 65.9°F18.8°C 80% 3.0 mph S4.8 kmh S 9.0 mph14.5 kmh 29.96 in1014.6 mb 0.00 in0.0 mm 0.00 in0.0 mm 0.00 in0.0 mm
05:28 AM 72.4°F22.4°C 65.9°F18.8°C 80% 4.0 mph S6.4 kmh S 9.0 mph14.5 kmh 29.96 in1014.6 mb 0.00 in0.0 mm 0.00 in0.0 mm 0.00 in0.0 mm
05:30 AM 72.4°F22.4°C 65.9°F18.8°C 80% 4.0 mph S6.4 kmh S 9.0 mph14.5 kmh 29.95 in1014.2 mb 0.00 in0.0 mm 0.00 in0.0 mm 0.00 in0.0 mm
05:32 AM 72.4°F22.4°C 65.9°F18.8°C 80% 4.0 mph S6.4 kmh S 9.0 mph14.5 kmh 29.95 in1014.2 mb 0.00 in0.0 mm 0.00 in0.0 mm 0.00 in0.0 mm
05:34 AM 72.4°F22.4°C 65.9°F18.8°C 80% 4.0 mph S6.4 kmh S 9.0 mph14.5 kmh 29.95 in1014.2 mb 0.00 in0.0 mm 0.00 in0.0 mm 0.00 in0.0 mm
05:36 AM 72.4°F22.4°C 65.9°F18.8°C 80% 4.0 mph S6.4 kmh S 9.0 mph14.5 kmh 29.96 in1014.6 mb 0.00 in0.0 mm 0.00 in0.0 mm 0.00 in0.0 mm
05:38 AM 72.4°F22.4°C 65.9°F18.8°C 80% 4.0 mph S6.4 kmh S 9.0 mph14.5 kmh 29.96 in1014.6 mb 0.00 in0.0 mm 0.00 in0.0 mm 0.00 in0.0 mm
05:40 AM 72.4°F22.4°C 65.5°F18.6°C 79% 4.0 mph S6.4 kmh S 8.0 mph12.9 kmh 29.95 in1014.2 mb 0.00 in0.0 mm 0.00 in0.0 mm 0.00 in0.0 mm
05:42 AM 72.4°F22.4°C 65.5°F18.6°C 79% 4.0 mph S6.4 kmh S 8.0 mph12.9 kmh 29.96 in1014.6 mb 0.00 in0.0 mm 0.00 in0.0 mm 0.00 in0.0 mm
05:44 AM 72.4°F22.4°C 65.5°F18.6°C 79% 4.0 mph S6.4 kmh S 8.0 mph12.9 kmh 29.95 in1014.2 mb 0.00 in0.0 mm 0.00 in0.0 mm 0.00 in0.0 mm
05:46 AM 72.4°F22.4°C 65.5°F18.6°C 79% 4.0 mph S6.4 kmh S 10.0 mph16.1 kmh 29.95 in1014.2 mb 0.00 in0.0 mm 0.00 in0.0 mm 0.00 in0.0 mm
05:48 AM 72.4°F22.4°C 65.5°F18.6°C 79% 4.0 mph S6.4 kmh S 10.0 mph16.1 kmh 29.95 in1014.2 mb 0.00 in0.0 mm 0.00 in0.0 mm 0.00 in0.0 mm
05:50 AM 72.4°F22.4°C 65.5°F18.6°C 79% 4.0 mph S6.4 kmh S 10.0 mph16.1 kmh 29.95 in1014.2 mb 0.00 in0.0 mm 0.00 in0.0 mm 0.00 in0.0 mm
05:54 AM 72.3°F22.4°C 65.4°F18.6°C 79% 5.0 mph S8.0 kmh S 12.0 mph19.3 kmh 29.95 in1014.2 mb 0.00 in0.0 mm 0.00 in0.0 mm 0.00 in0.0 mm
05:56 AM 72.4°F22.4°C 65.5°F18.6°C 79% 5.0 mph S8.0 kmh S 12.0 mph19.3 kmh 29.95 in1014.2 mb 0.00 in0.0 mm 0.00 in0.0 mm 0.00 in0.0 mm
05:58 AM 72.3°F22.4°C 65.4°F18.6°C 79% 4.0 mph S6.4 kmh S 12.0 mph19.3 kmh 29.95 in1014.2 mb 0.00 in0.0 mm 0.00 in0.0 mm 0.00 in0.0 mm
06:00 AM 72.2°F22.3°C 65.3°F18.5°C 79% 4.0 mph S6.4 kmh S 12.0 mph19.3 kmh 29.95 in1014.2 mb 0.00 in0.0 mm 0.00 in0.0 mm 0.00 in0.0 mm
06:02 AM 72.2°F22.3°C 65.3°F18.5°C 79% 4.0 mph S6.4 kmh S 11.0 mph17.7 kmh 29.95 in1014.2 mb 0.00 in0.0 mm 0.00 in0.0 mm 0.00 in0.0 mm
06:04 AM 72.2°F22.3°C 65.3°F18.5°C 79% 4.0 mph S6.4 kmh S 11.0 mph17.7 kmh 29.95 in1014.2 mb 0.00 in0.0 mm 0.00 in0.0 mm 0.00 in0.0 mm
06:06 AM 72.1°F22.3°C 65.2°F18.4°C 79% 5.0 mph S8.0 kmh S 11.0 mph17.7 kmh 29.95 in1014.2 mb 0.00 in0.0 mm 0.00 in0.0 mm 0.00 in0.0 mm
06:08 AM 72.1°F22.3°C 65.2°F18.4°C 79% 5.0 mph S8.0 kmh S 11.0 mph17.7 kmh 29.95 in1014.2 mb 0.00 in0.0 mm 0.00 in0.0 mm 0.00 in0.0 mm
06:10 AM 72.1°F22.3°C 65.2°F18.4°C 79% 4.0 mph S6.4 kmh S 10.0 mph16.1 kmh 29.95 in1014.2 mb 0.00 in0.0 mm 0.00 in0.0 mm 0.00 in0.0 mm
06:12 AM 72.0°F22.2°C 65.1°F18.4°C 79% 4.0 mph S6.4 kmh S 10.0 mph16.1 kmh 29.95 in1014.2 mb 0.00 in0.0 mm 0.00 in0.0 mm 0.00 in0.0 mm
06:14 AM 72.0°F22.2°C 65.1°F18.4°C 79% 4.0 mph S6.4 kmh S 10.0 mph16.1 kmh 29.95 in1014.2 mb 0.00 in0.0 mm 0.00 in0.0 mm 0.00 in0.0 mm
06:16 AM 71.9°F22.2°C 65.0°F18.3°C 79% 4.0 mph S6.4 kmh S 10.0 mph16.1 kmh 29.95 in1014.2 mb 0.00 in0.0 mm 0.00 in0.0 mm 0.00 in0.0 mm
06:18 AM 71.9°F22.2°C 65.0°F18.3°C 79% 4.0 mph S6.4 kmh S 10.0 mph16.1 kmh 29.95 in1014.2 mb 0.00 in0.0 mm 0.00 in0.0 mm 0.00 in0.0 mm
06:20 AM 71.8°F22.1°C 64.9°F18.3°C 79% 4.0 mph S6.4 kmh S 10.0 mph16.1 kmh 29.95 in1014.2 mb 0.00 in0.0 mm 0.00 in0.0 mm 0.00 in0.0 mm
06:22 AM 71.7°F22.1°C 64.8°F18.2°C 79% 4.0 mph S6.4 kmh S 10.0 mph16.1 kmh 29.95 in1014.2 mb 0.00 in0.0 mm 0.00 in0.0 mm 0.00 in0.0 mm
06:24 AM 71.7°F22.1°C 64.8°F18.2°C 79% 4.0 mph S6.4 kmh S 9.0 mph14.5 kmh 29.95 in1014.2 mb 0.00 in0.0 mm 0.00 in0.0 mm 0.00 in0.0 mm
06:26 AM 71.6°F22.0°C 64.7°F18.2°C 79% 4.0 mph S6.4 kmh S 9.0 mph14.5 kmh 29.95 in1014.2 mb 0.00 in0.0 mm 0.00 in0.0 mm 0.00 in0.0 mm
06:28 AM 71.6°F22.0°C 64.7°F18.2°C 79% 4.0 mph S6.4 kmh S 9.0 mph14.5 kmh 29.95 in1014.2 mb 0.00 in0.0 mm 0.00 in0.0 mm 0.00 in0.0 mm
06:30 AM 71.6°F22.0°C 64.7°F18.2°C 79% 4.0 mph S6.4 kmh S 9.0 mph14.5 kmh 29.95 in1014.2 mb 0.00 in0.0 mm 0.00 in0.0 mm 0.00 in0.0 mm
06:32 AM 71.5°F21.9°C 65.0°F18.3°C 80% 4.0 mph S6.4 kmh S 9.0 mph14.5 kmh 29.95 in1014.2 mb 0.00 in0.0 mm 0.00 in0.0 mm 0.00 in0.0 mm
06:34 AM 71.5°F21.9°C 64.6°F18.1°C 79% 4.0 mph S6.4 kmh S 9.0 mph14.5 kmh 29.95 in1014.2 mb 0.00 in0.0 mm 0.00 in0.0 mm 0.00 in0.0 mm
06:36 AM 71.5°F21.9°C 64.6°F18.1°C 79% 4.0 mph S6.4 kmh S 9.0 mph14.5 kmh 29.95 in1014.2 mb 0.00 in0.0 mm 0.00 in0.0 mm 0.00 in0.0 mm
06:38 AM 71.5°F21.9°C 65.0°F18.3°C 80% 4.0 mph S6.4 kmh S 9.0 mph14.5 kmh 29.95 in1014.2 mb 0.00 in0.0 mm 0.00 in0.0 mm 0.00 in0.0 mm
06:40 AM 71.4°F21.9°C 64.5°F18.1°C 79% 4.0 mph S6.4 kmh S 9.0 mph14.5 kmh 29.95 in1014.2 mb 0.00 in0.0 mm 0.00 in0.0 mm 0.00 in0.0 mm
06:42 AM 71.4°F21.9°C 64.9°F18.3°C 80% 4.0 mph S6.4 kmh S 9.0 mph14.5 kmh 29.95 in1014.2 mb 0.00 in0.0 mm 0.00 in0.0 mm 0.00 in0.0 mm
06:44 AM 71.4°F21.9°C 64.9°F18.3°C 80% 4.0 mph S6.4 kmh S 9.0 mph14.5 kmh 29.95 in1014.2 mb 0.00 in0.0 mm 0.00 in0.0 mm 0.00 in0.0 mm
06:46 AM 71.3°F21.8°C 64.8°F18.2°C 80% 4.0 mph S6.4 kmh S 11.0 mph17.7 kmh 29.95 in1014.2 mb 0.00 in0.0 mm 0.00 in0.0 mm 0.00 in0.0 mm
06:48 AM 71.3°F21.8°C 64.8°F18.2°C 80% 4.0 mph S6.4 kmh S 11.0 mph17.7 kmh 29.95 in1014.2 mb 0.00 in0.0 mm 0.00 in0.0 mm 0.00 in0.0 mm
06:50 AM 71.3°F21.8°C 64.8°F18.2°C 80% 4.0 mph S6.4 kmh S 11.0 mph17.7 kmh 29.95 in1014.2 mb 0.00 in0.0 mm 0.00 in0.0 mm 0.00 in0.0 mm
06:52 AM 71.3°F21.8°C 64.4°F18.0°C 79% 4.0 mph S6.4 kmh S 11.0 mph17.7 kmh 29.95 in1014.2 mb 0.00 in0.0 mm 0.00 in0.0 mm 0.00 in0.0 mm
06:54 AM 71.3°F21.8°C 64.4°F18.0°C 79% 4.0 mph S6.4 kmh S 11.0 mph17.7 kmh 29.95 in1014.2 mb 0.00 in0.0 mm 0.00 in0.0 mm 0.00 in0.0 mm
06:56 AM 71.3°F21.8°C 64.4°F18.0°C 79% 5.0 mph S8.0 kmh S 10.0 mph16.1 kmh 29.95 in1014.2 mb 0.00 in0.0 mm 0.00 in0.0 mm 0.00 in0.0 mm
06:58 AM 71.3°F21.8°C 64.8°F18.2°C 80% 4.0 mph S6.4 kmh S 10.0 mph16.1 kmh 29.95 in1014.2 mb 0.00 in0.0 mm 0.00 in0.0 mm 0.00 in0.0 mm
07:00 AM 71.3°F21.8°C 64.4°F18.0°C 79% 4.0 mph S6.4 kmh S 10.0 mph16.1 kmh 29.95 in1014.2 mb 0.00 in0.0 mm 0.00 in0.0 mm 0.00 in0.0 mm
07:02 AM 71.3°F21.8°C 64.4°F18.0°C 79% 4.0 mph S6.4 kmh S 10.0 mph16.1 kmh 29.95 in1014.2 mb 0.00 in0.0 mm 0.00 in0.0 mm 0.00 in0.0 mm
07:04 AM 71.3°F21.8°C 64.8°F18.2°C 80% 4.0 mph S6.4 kmh S 9.0 mph14.5 kmh 29.95 in1014.2 mb 0.00 in0.0 mm 0.00 in0.0 mm 0.00 in0.0 mm
07:06 AM 71.3°F21.8°C 64.4°F18.0°C 79% 4.0 mph S6.4 kmh S 9.0 mph14.5 kmh 29.95 in1014.2 mb 0.00 in0.0 mm 0.00 in0.0 mm 0.00 in0.0 mm
07:08 AM 71.3°F21.8°C 64.4°F18.0°C 79% 4.0 mph S6.4 kmh S 9.0 mph14.5 kmh 29.95 in1014.2 mb 0.00 in0.0 mm 0.00 in0.0 mm 0.00 in0.0 mm
07:10 AM 71.3°F21.8°C 64.8°F18.2°C 80% 4.0 mph S6.4 kmh S 11.0 mph17.7 kmh 29.95 in1014.2 mb 0.00 in0.0 mm 0.00 in0.0 mm 0.00 in0.0 mm
07:12 AM 71.3°F21.8°C 64.4°F18.0°C 79% 4.0 mph S6.4 kmh S 11.0 mph17.7 kmh 29.95 in1014.2 mb 0.00 in0.0 mm 0.00 in0.0 mm 0.00 in0.0 mm
07:14 AM 71.3°F21.8°C 64.8°F18.2°C 80% 4.0 mph S6.4 kmh S 11.0 mph17.7 kmh 29.95 in1014.2 mb 0.00 in0.0 mm 0.00 in0.0 mm 0.00 in0.0 mm
07:16 AM 71.3°F21.8°C 64.4°F18.0°C 79% 4.0 mph S6.4 kmh S 11.0 mph17.7 kmh 29.95 in1014.2 mb 0.00 in0.0 mm 0.00 in0.0 mm 0.00 in0.0 mm
07:18 AM 71.3°F21.8°C 64.4°F18.0°C 79% 4.0 mph S6.4 kmh S 11.0 mph17.7 kmh 29.95 in1014.2 mb 0.00 in0.0 mm 0.00 in0.0 mm 0.00 in0.0 mm
07:20 AM 71.3°F21.8°C 64.4°F18.0°C 79% 5.0 mph S8.0 kmh S 8.0 mph12.9 kmh 29.95 in1014.2 mb 0.00 in0.0 mm 0.00 in0.0 mm 0.00 in0.0 mm
07:22 AM 71.3°F21.8°C 64.8°F18.2°C 80% 4.0 mph S6.4 kmh S 8.0 mph12.9 kmh 29.95 in1014.2 mb 0.00 in0.0 mm 0.00 in0.0 mm 0.13 in3.3 mm
07:24 AM 71.3°F21.8°C 64.4°F18.0°C 79% 4.0 mph S6.4 kmh S 10.0 mph16.1 kmh 29.95 in1014.2 mb 0.00 in0.0 mm 0.00 in0.0 mm 0.13 in3.3 mm
07:26 AM 71.3°F21.8°C 64.4°F18.0°C 79% 4.0 mph S6.4 kmh S 10.0 mph16.1 kmh 29.95 in1014.2 mb 0.00 in0.0 mm 0.00 in0.0 mm 0.13 in3.3 mm
07:28 AM 71.3°F21.8°C 64.4°F18.0°C 79% 4.0 mph S6.4 kmh S 10.0 mph16.1 kmh 29.95 in1014.2 mb 0.00 in0.0 mm 0.00 in0.0 mm 0.13 in3.3 mm
07:30 AM 71.3°F21.8°C 64.4°F18.0°C 79% 4.0 mph S6.4 kmh S 10.0 mph16.1 kmh 29.95 in1014.2 mb 0.00 in0.0 mm 0.00 in0.0 mm 0.13 in3.3 mm
07:32 AM 71.3°F21.8°C 64.4°F18.0°C 79% 4.0 mph S6.4 kmh S 10.0 mph16.1 kmh 29.95 in1014.2 mb 0.00 in0.0 mm 0.00 in0.0 mm 0.13 in3.3 mm
07:34 AM 71.3°F21.8°C 64.4°F18.0°C 79% 4.0 mph S6.4 kmh S 9.0 mph14.5 kmh 29.94 in1013.9 mb 0.00 in0.0 mm 0.00 in0.0 mm 0.13 in3.3 mm
07:36 AM 71.3°F21.8°C 64.4°F18.0°C 79% 4.0 mph S6.4 kmh S 11.0 mph17.7 kmh 29.95 in1014.2 mb 0.00 in0.0 mm 0.00 in0.0 mm 0.13 in3.3 mm
07:38 AM 71.4°F21.9°C 64.5°F18.1°C 79% 4.0 mph S6.4 kmh S 12.0 mph19.3 kmh 29.94 in1013.9 mb 0.00 in0.0 mm 0.00 in0.0 mm 0.13 in3.3 mm
07:40 AM 71.4°F21.9°C 64.5°F18.1°C 79% 4.0 mph S6.4 kmh S 12.0 mph19.3 kmh 29.94 in1013.9 mb 0.00 in0.0 mm 0.00 in0.0 mm 0.13 in3.3 mm
07:44 AM 71.5°F21.9°C 64.6°F18.1°C 79% 4.0 mph S6.4 kmh S 12.0 mph19.3 kmh 29.94 in1013.9 mb 0.00 in0.0 mm 0.00 in0.0 mm 0.13 in3.3 mm
07:46 AM 71.6°F22.0°C 64.7°F18.2°C 79% 5.0 mph S8.0 kmh S 12.0 mph19.3 kmh 29.94 in1013.9 mb 0.00 in0.0 mm 0.00 in0.0 mm 0.13 in3.3 mm
07:48 AM 71.7°F22.1°C 64.5°F18.1°C 78% 5.0 mph S8.0 kmh S 11.0 mph17.7 kmh 29.94 in1013.9 mb 0.00 in0.0 mm 0.00 in0.0 mm 0.13 in3.3 mm
07:50 AM 71.9°F22.2°C 64.7°F18.2°C 78% 5.0 mph S8.0 kmh S 11.0 mph17.7 kmh 29.94 in1013.9 mb 0.00 in0.0 mm 0.00 in0.0 mm 0.13 in3.3 mm
07:52 AM 71.9°F22.2°C 65.0°F18.3°C 79% 6.0 mph S9.7 kmh S 11.0 mph17.7 kmh 29.94 in1013.9 mb 0.00 in0.0 mm 0.00 in0.0 mm 0.13 in3.3 mm
07:54 AM 72.0°F22.2°C 64.8°F18.2°C 78% 6.0 mph S9.7 kmh S 13.0 mph20.9 kmh 29.94 in1013.9 mb 0.00 in0.0 mm 0.00 in0.0 mm 0.13 in3.3 mm
07:56 AM 72.2°F22.3°C 65.0°F18.3°C 78% 6.0 mph S9.7 kmh S 13.0 mph20.9 kmh 29.94 in1013.9 mb 0.00 in0.0 mm 0.00 in0.0 mm 0.13 in3.3 mm
07:58 AM 72.2°F22.3°C 65.0°F18.3°C 78% 6.0 mph S9.7 kmh S 13.0 mph20.9 kmh 29.94 in1013.9 mb 0.00 in0.0 mm 0.00 in0.0 mm 0.13 in3.3 mm
08:00 AM 72.3°F22.4°C 65.1°F18.4°C 78% 6.0 mph S9.7 kmh S 13.0 mph20.9 kmh 29.95 in1014.2 mb 0.00 in0.0 mm 0.00 in0.0 mm 0.13 in3.3 mm
08:02 AM 72.2°F22.3°C 64.6°F18.1°C 77% 7.0 mph S11.3 kmh S 13.0 mph20.9 kmh 29.95 in1014.2 mb 0.00 in0.0 mm 0.00 in0.0 mm 0.13 in3.3 mm
08:04 AM 72.2°F22.3°C 64.6°F18.1°C 77% 6.0 mph S9.7 kmh S 12.0 mph19.3 kmh 29.95 in1014.2 mb 0.00 in0.0 mm 0.00 in0.0 mm 0.13 in3.3 mm
08:06 AM 72.2°F22.3°C 64.6°F18.1°C 77% 6.0 mph S9.7 kmh S 12.0 mph19.3 kmh 29.95 in1014.2 mb 0.00 in0.0 mm 0.00 in0.0 mm 0.13 in3.3 mm
08:08 AM 72.2°F22.3°C 65.0°F18.3°C 78% 6.0 mph S9.7 kmh S 11.0 mph17.7 kmh 29.95 in1014.2 mb 0.00 in0.0 mm 0.00 in0.0 mm 0.13 in3.3 mm
08:10 AM 72.1°F22.3°C 64.9°F18.3°C 78% 6.0 mph S9.7 kmh S 11.0 mph17.7 kmh 29.95 in1014.2 mb 0.00 in0.0 mm 0.00 in0.0 mm 0.13 in3.3 mm
08:12 AM 72.1°F22.3°C 64.5°F18.1°C 77% 6.0 mph S9.7 kmh S 11.0 mph17.7 kmh 29.95 in1014.2 mb 0.00 in0.0 mm 0.00 in0.0 mm 0.13 in3.3 mm
08:14 AM 72.1°F22.3°C 64.9°F18.3°C 78% 6.0 mph S9.7 kmh S 11.0 mph17.7 kmh 29.95 in1014.2 mb 0.00 in0.0 mm 0.00 in0.0 mm 0.13 in3.3 mm
08:16 AM 72.1°F22.3°C 64.9°F18.3°C 78% 6.0 mph S9.7 kmh S 14.0 mph22.5 kmh 29.95 in1014.2 mb 0.00 in0.0 mm 0.00 in0.0 mm 0.13 in3.3 mm
08:18 AM 72.2°F22.3°C 65.0°F18.3°C 78% 7.0 mph S11.3 kmh S 14.0 mph22.5 kmh 29.94 in1013.9 mb 0.00 in0.0 mm 0.00 in0.0 mm 0.13 in3.3 mm
08:20 AM 72.2°F22.3°C 64.6°F18.1°C 77% 7.0 mph S11.3 kmh S 14.0 mph22.5 kmh 29.94 in1013.9 mb 0.00 in0.0 mm 0.00 in0.0 mm 0.13 in3.3 mm
08:22 AM 72.2°F22.3°C 64.6°F18.1°C 77% 7.0 mph S11.3 kmh S 14.0 mph22.5 kmh 29.94 in1013.9 mb 0.00 in0.0 mm 0.00 in0.0 mm 0.13 in3.3 mm
08:24 AM 72.2°F22.3°C 64.6°F18.1°C 77% 7.0 mph S11.3 kmh S 16.0 mph25.7 kmh 29.94 in1013.9 mb 0.00 in0.0 mm 0.00 in0.0 mm 0.13 in3.3 mm
08:26 AM 72.4°F22.4°C 64.8°F18.2°C 77% 7.0 mph S11.3 kmh S 18.0 mph29.0 kmh 29.94 in1013.9 mb 0.00 in0.0 mm 0.00 in0.0 mm 0.13 in3.3 mm
08:28 AM 72.6°F22.6°C 64.6°F18.1°C 76% 8.0 mph S12.9 kmh S 18.0 mph29.0 kmh 29.94 in1013.9 mb 0.00 in0.0 mm 0.00 in0.0 mm 0.13 in3.3 mm
08:30 AM 72.7°F22.6°C 64.7°F18.2°C 76% 8.0 mph S12.9 kmh S 18.0 mph29.0 kmh 29.94 in1013.9 mb 0.00 in0.0 mm 0.00 in0.0 mm 0.13 in3.3 mm
08:32 AM 72.8°F22.7°C 64.8°F18.2°C 76% 8.0 mph S12.9 kmh S 18.0 mph29.0 kmh 29.94 in1013.9 mb 0.00 in0.0 mm 0.00 in0.0 mm 0.13 in3.3 mm
08:34 AM 72.9°F22.7°C 64.5°F18.1°C 75% 9.0 mph S14.5 kmh S 19.0 mph30.6 kmh 29.94 in1013.9 mb 0.00 in0.0 mm 0.00 in0.0 mm 0.13 in3.3 mm
08:36 AM 72.9°F22.7°C 64.9°F18.3°C 76% 8.0 mph S12.9 kmh S 19.0 mph30.6 kmh 29.94 in1013.9 mb 0.00 in0.0 mm 0.00 in0.0 mm 0.13 in3.3 mm
08:38 AM 72.9°F22.7°C 64.5°F18.1°C 75% 8.0 mph S12.9 kmh S 19.0 mph30.6 kmh 29.95 in1014.2 mb 0.00 in0.0 mm 0.00 in0.0 mm 0.13 in3.3 mm
08:40 AM 73.0°F22.8°C 64.6°F18.1°C 75% 7.0 mph S11.3 kmh S 19.0 mph30.6 kmh 29.94 in1013.9 mb 0.00 in0.0 mm 0.00 in0.0 mm 0.13 in3.3 mm
08:42 AM 73.0°F22.8°C 65.0°F18.3°C 76% 7.0 mph S11.3 kmh S 19.0 mph30.6 kmh 29.94 in1013.9 mb 0.00 in0.0 mm 0.00 in0.0 mm 0.13 in3.3 mm
08:44 AM 73.0°F22.8°C 64.6°F18.1°C 75% 7.0 mph S11.3 kmh S 13.0 mph20.9 kmh 29.95 in1014.2 mb 0.00 in0.0 mm 0.00 in0.0 mm 0.13 in3.3 mm
08:46 AM 73.1°F22.8°C 64.7°F18.2°C 75% 8.0 mph S12.9 kmh S 15.0 mph24.1 kmh 29.94 in1013.9 mb 0.00 in0.0 mm 0.00 in0.0 mm 0.13 in3.3 mm
08:48 AM 73.3°F22.9°C 64.5°F18.1°C 74% 8.0 mph S12.9 kmh S 15.0 mph24.1 kmh 29.94 in1013.9 mb 0.00 in0.0 mm 0.00 in0.0 mm 0.13 in3.3 mm
08:50 AM 73.5°F23.1°C 65.1°F18.4°C 75% 8.0 mph S12.9 kmh S 15.0 mph24.1 kmh 29.94 in1013.9 mb 0.00 in0.0 mm 0.00 in0.0 mm 0.13 in3.3 mm
08:52 AM 73.7°F23.2°C 64.9°F18.3°C 74% 8.0 mph S12.9 kmh S 15.0 mph24.1 kmh 29.94 in1013.9 mb 0.00 in0.0 mm 0.00 in0.0 mm 0.13 in3.3 mm
08:54 AM 73.9°F23.3°C 65.1°F18.4°C 74% 8.0 mph S12.9 kmh S 15.0 mph24.1 kmh 29.94 in1013.9 mb 0.00 in0.0 mm 0.00 in0.0 mm 0.13 in3.3 mm
08:56 AM 74.0°F23.3°C 65.2°F18.4°C 74% 7.0 mph S11.3 kmh S 14.0 mph22.5 kmh 29.94 in1013.9 mb 0.00 in0.0 mm 0.00 in0.0 mm 0.13 in3.3 mm
08:58 AM 74.1°F23.4°C 64.9°F18.3°C 73% 8.0 mph S12.9 kmh S 17.0 mph27.4 kmh 29.94 in1013.9 mb 0.00 in0.0 mm 0.00 in0.0 mm 0.13 in3.3 mm
09:00 AM 74.3°F23.5°C 65.1°F18.4°C 73% 8.0 mph S12.9 kmh S 17.0 mph27.4 kmh 29.94 in1013.9 mb 0.00 in0.0 mm 0.00 in0.0 mm 0.13 in3.3 mm
09:02 AM 74.4°F23.6°C 65.2°F18.4°C 73% 8.0 mph S12.9 kmh S 17.0 mph27.4 kmh 29.94 in1013.9 mb 0.00 in0.0 mm 0.00 in0.0 mm 0.13 in3.3 mm
09:04 AM 74.6°F23.7°C 65.0°F18.3°C 72% 9.0 mph S14.5 kmh S 17.0 mph27.4 kmh 29.94 in1013.9 mb 0.00 in0.0 mm 0.00 in0.0 mm 0.13 in3.3 mm
09:06 AM 74.8°F23.8°C 64.8°F18.2°C 71% 9.0 mph S14.5 kmh S 17.0 mph27.4 kmh 29.94 in1013.9 mb 0.00 in0.0 mm 0.00 in0.0 mm 0.13 in3.3 mm
09:08 AM 74.9°F23.8°C 64.9°F18.3°C 71% 9.0 mph S14.5 kmh S 14.0 mph22.5 kmh 29.94 in1013.9 mb 0.00 in0.0 mm 0.00 in0.0 mm 0.13 in3.3 mm
09:10 AM 75.0°F23.9°C 65.4°F18.6°C 72% 9.0 mph S14.5 kmh S 14.0 mph22.5 kmh 29.94 in1013.9 mb 0.00 in0.0 mm 0.00 in0.0 mm 0.13 in3.3 mm
09:12 AM 75.2°F24.0°C 65.1°F18.4°C 71% 9.0 mph S14.5 kmh S 16.0 mph25.7 kmh 29.94 in1013.9 mb 0.00 in0.0 mm 0.00 in0.0 mm 0.13 in3.3 mm
09:14 AM 75.4°F24.1°C 65.3°F18.5°C 71% 9.0 mph S14.5 kmh S 16.0 mph25.7 kmh 29.94 in1013.9 mb 0.00 in0.0 mm 0.00 in0.0 mm 0.13 in3.3 mm
09:16 AM 75.6°F24.2°C 65.5°F18.6°C 71% 8.0 mph S12.9 kmh S 16.0 mph25.7 kmh 29.94 in1013.9 mb 0.00 in0.0 mm 0.00 in0.0 mm 0.13 in3.3 mm
09:18 AM 75.8°F24.3°C 65.3°F18.5°C 70% 9.0 mph S14.5 kmh S 16.0 mph25.7 kmh 29.93 in1013.5 mb 0.00 in0.0 mm 0.00 in0.0 mm 0.13 in3.3 mm
09:20 AM 76.0°F24.4°C 65.9°F18.8°C 71% 9.0 mph S14.5 kmh S 16.0 mph25.7 kmh 29.93 in1013.5 mb 0.00 in0.0 mm 0.00 in0.0 mm 0.13 in3.3 mm
09:22 AM 76.3°F24.6°C 65.4°F18.6°C 69% 9.0 mph S14.5 kmh S 16.0 mph25.7 kmh 29.93 in1013.5 mb 0.00 in0.0 mm 0.00 in0.0 mm 0.13 in3.3 mm
09:24 AM 76.5°F24.7°C 66.4°F19.1°C 71% 9.0 mph S14.5 kmh S 16.0 mph25.7 kmh 29.93 in1013.5 mb 0.00 in0.0 mm 0.00 in0.0 mm 0.13 in3.3 mm
09:26 AM 76.6°F24.8°C 66.1°F18.9°C 70% 9.0 mph S14.5 kmh S 16.0 mph25.7 kmh 29.93 in1013.5 mb 0.00 in0.0 mm 0.00 in0.0 mm 0.13 in3.3 mm
09:28 AM 76.8°F24.9°C 65.9°F18.8°C 69% 9.0 mph S14.5 kmh S 19.0 mph30.6 kmh 29.93 in1013.5 mb 0.00 in0.0 mm 0.00 in0.0 mm 0.13 in3.3 mm
09:30 AM 76.9°F24.9°C 65.5°F18.6°C 68% 10.0 mph S16.1 kmh S 20.0 mph32.2 kmh 29.93 in1013.5 mb 0.00 in0.0 mm 0.00 in0.0 mm 0.13 in3.3 mm
09:32 AM 76.8°F24.9°C 65.4°F18.6°C 68% 10.0 mph S16.1 kmh S 20.0 mph32.2 kmh 29.93 in1013.5 mb 0.00 in0.0 mm 0.00 in0.0 mm 0.13 in3.3 mm
09:34 AM 76.9°F24.9°C 65.5°F18.6°C 68% 11.0 mph S17.7 kmh S 20.0 mph32.2 kmh 29.93 in1013.5 mb 0.00 in0.0 mm 0.00 in0.0 mm 0.13 in3.3 mm
09:36 AM 76.9°F24.9°C 65.5°F18.6°C 68% 10.0 mph S16.1 kmh S 20.0 mph32.2 kmh 29.93 in1013.5 mb 0.00 in0.0 mm 0.00 in0.0 mm 0.13 in3.3 mm
09:38 AM 76.8°F24.9°C 65.4°F18.6°C 68% 10.0 mph S16.1 kmh S 20.0 mph32.2 kmh 29.93 in1013.5 mb 0.00 in0.0 mm 0.00 in0.0 mm 0.13 in3.3 mm
09:40 AM 76.9°F24.9°C 65.5°F18.6°C 68% 10.0 mph S16.1 kmh S 18.0 mph29.0 kmh 29.93 in1013.5 mb 0.00 in0.0 mm 0.00 in0.0 mm 0.13 in3.3 mm
09:42 AM 77.0°F25.0°C 65.6°F18.7°C 68% 9.0 mph S14.5 kmh S 18.0 mph29.0 kmh 29.93 in1013.5 mb 0.00 in0.0 mm 0.00 in0.0 mm 0.13 in3.3 mm
09:44 AM 77.1°F25.1°C 65.7°F18.7°C 68% 9.0 mph S14.5 kmh S 18.0 mph29.0 kmh 29.93 in1013.5 mb 0.00 in0.0 mm 0.00 in0.0 mm 0.13 in3.3 mm
09:46 AM 77.2°F25.1°C 65.8°F18.8°C 68% 9.0 mph S14.5 kmh S 18.0 mph29.0 kmh 29.92 in1013.2 mb 0.00 in0.0 mm 0.00 in0.0 mm 0.13 in3.3 mm
09:48 AM 77.4°F25.2°C 65.6°F18.7°C 67% 10.0 mph S16.1 kmh S 17.0 mph27.4 kmh 29.93 in1013.5 mb 0.00 in0.0 mm 0.00 in0.0 mm 0.13 in3.3 mm
09:50 AM 77.6°F25.3°C 66.2°F19.0°C 68% 10.0 mph S16.1 kmh S 18.0 mph29.0 kmh 29.93 in1013.5 mb 0.00 in0.0 mm 0.00 in0.0 mm 0.13 in3.3 mm
09:52 AM 77.6°F25.3°C 65.3°F18.5°C 66% 11.0 mph S17.7 kmh S 19.0 mph30.6 kmh 29.93 in1013.5 mb 0.00 in0.0 mm 0.00 in0.0 mm 0.13 in3.3 mm
09:54 AM 77.7°F25.4°C 65.4°F18.6°C 66% 12.0 mph S19.3 kmh S 20.0 mph32.2 kmh 29.93 in1013.5 mb 0.00 in0.0 mm 0.00 in0.0 mm 0.13 in3.3 mm
09:56 AM 77.8°F25.4°C 65.5°F18.6°C 66% 12.0 mph S19.3 kmh S 20.0 mph32.2 kmh 29.93 in1013.5 mb 0.00 in0.0 mm 0.00 in0.0 mm 0.13 in3.3 mm
09:58 AM 77.9°F25.5°C 65.6°F18.7°C 66% 12.0 mph S19.3 kmh S 20.0 mph32.2 kmh 29.93 in1013.5 mb 0.00 in0.0 mm 0.00 in0.0 mm 0.13 in3.3 mm
10:00 AM 78.0°F25.6°C 66.2°F19.0°C 67% 12.0 mph S19.3 kmh S 20.0 mph32.2 kmh 29.93 in1013.5 mb 0.00 in0.0 mm 0.00 in0.0 mm 0.13 in3.3 mm
10:02 AM 78.1°F25.6°C 66.2°F19.0°C 67% 11.0 mph S17.7 kmh S 20.0 mph32.2 kmh 29.93 in1013.5 mb 0.00 in0.0 mm 0.00 in0.0 mm 0.13 in3.3 mm
10:04 AM 78.1°F25.6°C 65.8°F18.8°C 66% 11.0 mph S17.7 kmh S 17.0 mph27.4 kmh 29.93 in1013.5 mb 0.00 in0.0 mm 0.00 in0.0 mm 0.13 in3.3 mm
10:06 AM 78.1°F25.6°C 65.8°F18.8°C 66% 11.0 mph S17.7 kmh S 19.0 mph30.6 kmh 29.92 in1013.2 mb 0.00 in0.0 mm 0.00 in0.0 mm 0.13 in3.3 mm
10:08 AM 78.1°F25.6°C 65.4°F18.6°C 65% 11.0 mph S17.7 kmh S 24.0 mph38.6 kmh 29.93 in1013.5 mb 0.00 in0.0 mm 0.00 in0.0 mm 0.13 in3.3 mm
10:10 AM 78.1°F25.6°C 65.8°F18.8°C 66% 11.0 mph S17.7 kmh S 24.0 mph38.6 kmh 29.92 in1013.2 mb 0.00 in0.0 mm 0.00 in0.0 mm 0.13 in3.3 mm
10:12 AM 78.1°F25.6°C 65.8°F18.8°C 66% 12.0 mph S19.3 kmh S 24.0 mph38.6 kmh 29.92 in1013.2 mb 0.00 in0.0 mm 0.00 in0.0 mm 0.13 in3.3 mm
10:14 AM 78.1°F25.6°C 65.8°F18.8°C 66% 12.0 mph S19.3 kmh S 24.0 mph38.6 kmh 29.92 in1013.2 mb 0.00 in0.0 mm 0.00 in0.0 mm 0.13 in3.3 mm
10:16 AM 78.1°F25.6°C 65.4°F18.6°C 65% 11.0 mph S17.7 kmh S 24.0 mph38.6 kmh 29.92 in1013.2 mb 0.00 in0.0 mm 0.00 in0.0 mm 0.13 in3.3 mm
10:18 AM 78.1°F25.6°C 65.4°F18.6°C 65% 10.0 mph S16.1 kmh S 19.0 mph30.6 kmh 29.92 in1013.2 mb 0.00 in0.0 mm 0.00 in0.0 mm 0.13 in3.3 mm
10:20 AM 78.1°F25.6°C 65.8°F18.8°C 66% 10.0 mph S16.1 kmh S 19.0 mph30.6 kmh 29.92 in1013.2 mb 0.00 in0.0 mm 0.00 in0.0 mm 0.13 in3.3 mm
10:22 AM 78.1°F25.6°C 66.2°F19.0°C 67% 10.0 mph S16.1 kmh S 19.0 mph30.6 kmh 29.92 in1013.2 mb 0.00 in0.0 mm 0.00 in0.0 mm 0.13 in3.3 mm
10:24 AM 78.1°F25.6°C 65.4°F18.6°C 65% 10.0 mph S16.1 kmh S 19.0 mph30.6 kmh 29.92 in1013.2 mb 0.00 in0.0 mm 0.00 in0.0 mm 0.13 in3.3 mm
10:26 AM 78.1°F25.6°C 65.8°F18.8°C 66% 10.0 mph S16.1 kmh S 19.0 mph30.6 kmh 29.92 in1013.2 mb 0.00 in0.0 mm 0.00 in0.0 mm 0.13 in3.3 mm
10:28 AM 78.1°F25.6°C 65.4°F18.6°C 65% 10.0 mph S16.1 kmh S 18.0 mph29.0 kmh 29.92 in1013.2 mb 0.00 in0.0 mm 0.00 in0.0 mm 0.13 in3.3 mm
10:30 AM 78.2°F25.7°C 65.9°F18.8°C 66% 10.0 mph S16.1 kmh S 18.0 mph29.0 kmh 29.92 in1013.2 mb 0.00 in0.0 mm 0.00 in0.0 mm 0.13 in3.3 mm
10:32 AM 78.2°F25.7°C 65.9°F18.8°C 66% 10.0 mph S16.1 kmh S 18.0 mph29.0 kmh 29.92 in1013.2 mb 0.00 in0.0 mm 0.00 in0.0 mm 0.13 in3.3 mm
10:34 AM 78.2°F25.7°C 65.5°F18.6°C 65% 10.0 mph S16.1 kmh S 21.0 mph33.8 kmh 29.92 in1013.2 mb 0.00 in0.0 mm 0.00 in0.0 mm 0.13 in3.3 mm
10:36 AM 78.3°F25.7°C 66.0°F18.9°C 66% 10.0 mph S16.1 kmh S 21.0 mph33.8 kmh 29.92 in1013.2 mb 0.00 in0.0 mm 0.00 in0.0 mm 0.13 in3.3 mm
10:38 AM 78.3°F25.7°C 65.6°F18.7°C 65% 10.0 mph S16.1 kmh S 21.0 mph33.8 kmh 29.92 in1013.2 mb 0.00 in0.0 mm 0.00 in0.0 mm 0.13 in3.3 mm
10:40 AM 78.4°F25.8°C 66.1°F18.9°C 66% 10.0 mph S16.1 kmh S 21.0 mph33.8 kmh 29.92 in1013.2 mb 0.00 in0.0 mm 0.00 in0.0 mm 0.13 in3.3 mm
10:42 AM 78.5°F25.8°C 66.2°F19.0°C 66% 10.0 mph S16.1 kmh S 21.0 mph33.8 kmh 29.92 in1013.2 mb 0.00 in0.0 mm 0.00 in0.0 mm 0.13 in3.3 mm
10:44 AM 78.4°F25.8°C 65.7°F18.7°C 65% 9.0 mph S14.5 kmh S 20.0 mph32.2 kmh 29.92 in1013.2 mb 0.00 in0.0 mm 0.00 in0.0 mm 0.13 in3.3 mm
10:46 AM 78.5°F25.8°C 66.2°F19.0°C 66% 9.0 mph S14.5 kmh S 20.0 mph32.2 kmh 29.92 in1013.2 mb 0.00 in0.0 mm 0.00 in0.0 mm 0.13 in3.3 mm
10:48 AM 78.5°F25.8°C 66.2°F19.0°C 66% 9.0 mph S14.5 kmh S 17.0 mph27.4 kmh 29.92 in1013.2 mb 0.00 in0.0 mm 0.00 in0.0 mm 0.13 in3.3 mm
10:50 AM 78.5°F25.8°C 66.2°F19.0°C 66% 9.0 mph S14.5 kmh S 17.0 mph27.4 kmh 29.91 in1012.9 mb 0.00 in0.0 mm 0.00 in0.0 mm 0.13 in3.3 mm
10:52 AM 78.6°F25.9°C 66.7°F19.3°C 67% 9.0 mph S14.5 kmh S 17.0 mph27.4 kmh 29.92 in1013.2 mb 0.00 in0.0 mm 0.00 in0.0 mm 0.13 in3.3 mm
10:54 AM 78.8°F26.0°C 66.9°F19.4°C 67% 9.0 mph S14.5 kmh S 15.0 mph24.1 kmh 29.91 in1012.9 mb 0.00 in0.0 mm 0.00 in0.0 mm 0.13 in3.3 mm
10:56 AM 78.9°F26.1°C 67.0°F19.4°C 67% 9.0 mph S14.5 kmh S 15.0 mph24.1 kmh 29.91 in1012.9 mb 0.00 in0.0 mm 0.00 in0.0 mm 0.13 in3.3 mm
10:58 AM 79.0°F26.1°C 66.7°F19.3°C 66% 9.0 mph S14.5 kmh S 15.0 mph24.1 kmh 29.91 in1012.9 mb 0.00 in0.0 mm 0.00 in0.0 mm 0.13 in3.3 mm
11:00 AM 79.1°F26.2°C 66.8°F19.3°C 66% 9.0 mph S14.5 kmh S 15.0 mph24.1 kmh 29.91 in1012.9 mb 0.00 in0.0 mm 0.00 in0.0 mm 0.13 in3.3 mm
11:02 AM 79.1°F26.2°C 66.8°F19.3°C 66% 9.0 mph S14.5 kmh S 15.0 mph24.1 kmh 29.91 in1012.9 mb 0.00 in0.0 mm 0.00 in0.0 mm 0.13 in3.3 mm
11:04 AM 79.1°F26.2°C 67.2°F19.6°C 67% 9.0 mph S14.5 kmh S 15.0 mph24.1 kmh 29.91 in1012.9 mb 0.00 in0.0 mm 0.00 in0.0 mm 0.13 in3.3 mm
11:06 AM 79.1°F26.2°C 66.8°F19.3°C 66% 9.0 mph S14.5 kmh S 15.0 mph24.1 kmh 29.91 in1012.9 mb 0.00 in0.0 mm 0.00 in0.0 mm 0.13 in3.3 mm
11:08 AM 79.1°F26.2°C 66.3°F19.1°C 65% 9.0 mph S14.5 kmh S 15.0 mph24.1 kmh 29.91 in1012.9 mb 0.00 in0.0 mm 0.00 in0.0 mm 0.13 in3.3 mm
11:10 AM 79.1°F26.2°C 66.3°F19.1°C 65% 9.0 mph S14.5 kmh S 16.0 mph25.7 kmh 29.91 in1012.9 mb 0.00 in0.0 mm 0.00 in0.0 mm 0.13 in3.3 mm
11:12 AM 79.3°F26.3°C 67.4°F19.7°C 67% 9.0 mph S14.5 kmh S 16.0 mph25.7 kmh 29.91 in1012.9 mb 0.00 in0.0 mm 0.00 in0.0 mm 0.13 in3.3 mm
11:14 AM 79.5°F26.4°C 67.6°F19.8°C 67% 9.0 mph S14.5 kmh S 16.0 mph25.7 kmh 29.91 in1012.9 mb 0.00 in0.0 mm 0.00 in0.0 mm 0.13 in3.3 mm
11:16 AM 79.6°F26.4°C 66.8°F19.3°C 65% 10.0 mph S16.1 kmh S 17.0 mph27.4 kmh 29.91 in1012.9 mb 0.00 in0.0 mm 0.00 in0.0 mm 0.13 in3.3 mm
11:18 AM 79.7°F26.5°C 66.9°F19.4°C 65% 10.0 mph S16.1 kmh S 17.0 mph27.4 kmh 29.91 in1012.9 mb 0.00 in0.0 mm 0.00 in0.0 mm 0.13 in3.3 mm
11:20 AM 79.9°F26.6°C 67.5°F19.7°C 66% 10.0 mph S16.1 kmh S 17.0 mph27.4 kmh 29.91 in1012.9 mb 0.00 in0.0 mm 0.00 in0.0 mm 0.13 in3.3 mm
11:22 AM 80.1°F26.7°C 67.7°F19.8°C 66% 10.0 mph S16.1 kmh S 17.0 mph27.4 kmh 29.91 in1012.9 mb 0.00 in0.0 mm 0.00 in0.0 mm 0.13 in3.3 mm
11:24 AM 80.2°F26.8°C 67.4°F19.7°C 65% 10.0 mph S16.1 kmh S 17.0 mph27.4 kmh 29.91 in1012.9 mb 0.00 in0.0 mm 0.00 in0.0 mm 0.13 in3.3 mm
11:26 AM 80.1°F26.7°C 67.3°F19.6°C 65% 9.0 mph S14.5 kmh S 17.0 mph27.4 kmh 29.91 in1012.9 mb 0.00 in0.0 mm 0.00 in0.0 mm 0.13 in3.3 mm
11:28 AM 80.0°F26.7°C 66.7°F19.3°C 64% 10.0 mph S16.1 kmh S 17.0 mph27.4 kmh 29.90 in1012.5 mb 0.00 in0.0 mm 0.00 in0.0 mm 0.13 in3.3 mm
11:30 AM 80.0°F26.7°C 67.2°F19.6°C 65% 10.0 mph S16.1 kmh S 17.0 mph27.4 kmh 29.90 in1012.5 mb 0.00 in0.0 mm 0.00 in0.0 mm 0.13 in3.3 mm
11:32 AM 80.0°F26.7°C 67.2°F19.6°C 65% 9.0 mph S14.5 kmh S 17.0 mph27.4 kmh 29.90 in1012.5 mb 0.00 in0.0 mm 0.00 in0.0 mm 0.13 in3.3 mm
11:34 AM 79.8°F26.6°C 67.0°F19.4°C 65% 10.0 mph S16.1 kmh S 17.0 mph27.4 kmh 29.90 in1012.5 mb 0.00 in0.0 mm 0.00 in0.0 mm 0.13 in3.3 mm
11:36 AM 79.9°F26.6°C 67.1°F19.5°C 65% 10.0 mph S16.1 kmh S 17.0 mph27.4 kmh 29.90 in1012.5 mb 0.00 in0.0 mm 0.00 in0.0 mm 0.13 in3.3 mm
11:38 AM 80.0°F26.7°C 67.2°F19.6°C 65% 10.0 mph S16.1 kmh S 17.0 mph27.4 kmh 29.90 in1012.5 mb 0.00 in0.0 mm 0.00 in0.0 mm 0.13 in3.3 mm
11:40 AM 80.1°F26.7°C 67.3°F19.6°C 65% 10.0 mph S16.1 kmh S 17.0 mph27.4 kmh 29.90 in1012.5 mb 0.00 in0.0 mm 0.00 in0.0 mm 0.13 in3.3 mm
11:42 AM 80.3°F26.8°C 67.5°F19.7°C 65% 11.0 mph S17.7 kmh S 21.0 mph33.8 kmh 29.90 in1012.5 mb 0.00 in0.0 mm 0.00 in0.0 mm 0.13 in3.3 mm
11:44 AM 80.3°F26.8°C 67.5°F19.7°C 65% 11.0 mph S17.7 kmh S 21.0 mph33.8 kmh 29.90 in1012.5 mb 0.00 in0.0 mm 0.00 in0.0 mm 0.13 in3.3 mm
11:46 AM 80.3°F26.8°C 67.5°F19.7°C 65% 11.0 mph S17.7 kmh S 21.0 mph33.8 kmh 29.90 in1012.5 mb 0.00 in0.0 mm 0.00 in0.0 mm 0.13 in3.3 mm
11:48 AM 80.3°F26.8°C 67.5°F19.7°C 65% 10.0 mph S16.1 kmh S 21.0 mph33.8 kmh 29.90 in1012.5 mb 0.00 in0.0 mm 0.00 in0.0 mm 0.13 in3.3 mm
11:50 AM 80.3°F26.8°C 67.9°F19.9°C 66% 10.0 mph S16.1 kmh S 21.0 mph33.8 kmh 29.89 in1012.2 mb 0.00 in0.0 mm 0.00 in0.0 mm 0.13 in3.3 mm
11:52 AM 80.5°F26.9°C 67.6°F19.8°C 65% 10.0 mph S16.1 kmh S 18.0 mph29.0 kmh 29.89 in1012.2 mb 0.00 in0.0 mm 0.00 in0.0 mm 0.13 in3.3 mm
11:54 AM 80.8°F27.1°C 69.2°F20.7°C 68% 9.0 mph S14.5 kmh S 18.0 mph29.0 kmh 29.90 in1012.5 mb 0.00 in0.0 mm 0.00 in0.0 mm 0.13 in3.3 mm
11:56 AM 81.3°F27.4°C 68.9°F20.5°C 66% 9.0 mph S14.5 kmh S 18.0 mph29.0 kmh 29.89 in1012.2 mb 0.00 in0.0 mm 0.00 in0.0 mm 0.13 in3.3 mm
11:58 AM 81.6°F27.6°C 69.1°F20.6°C 66% 10.0 mph SSW16.1 kmh SSW 20.0 mph32.2 kmh 29.89 in1012.2 mb 0.00 in0.0 mm 0.00 in0.0 mm 0.13 in3.3 mm
12:00 PM 81.5°F27.5°C 67.7°F19.8°C 63% 10.0 mph S16.1 kmh S 20.0 mph32.2 kmh 29.89 in1012.2 mb 0.00 in0.0 mm 0.00 in0.0 mm 0.13 in3.3 mm
12:02 PM 81.2°F27.3°C 67.4°F19.7°C 63% 11.0 mph S17.7 kmh S 20.0 mph32.2 kmh 29.89 in1012.2 mb 0.00 in0.0 mm 0.00 in0.0 mm 0.13 in3.3 mm
12:04 PM 81.1°F27.3°C 67.8°F19.9°C 64% 11.0 mph S17.7 kmh S 20.0 mph32.2 kmh 29.89 in1012.2 mb 0.00 in0.0 mm 0.00 in0.0 mm 0.13 in3.3 mm
12:06 PM 81.2°F27.3°C 67.9°F19.9°C 64% 11.0 mph S17.7 kmh S 20.0 mph32.2 kmh 29.89 in1012.2 mb 0.00 in0.0 mm 0.00 in0.0 mm 0.13 in3.3 mm
12:08 PM 81.2°F27.3°C 68.3°F20.2°C 65% 10.0 mph S16.1 kmh S 20.0 mph32.2 kmh 29.89 in1012.2 mb 0.00 in0.0 mm 0.00 in0.0 mm 0.13 in3.3 mm
12:10 PM 81.1°F27.3°C 69.1°F20.6°C 67% 9.0 mph S14.5 kmh S 19.0 mph30.6 kmh 29.89 in1012.2 mb 0.00 in0.0 mm 0.00 in0.0 mm 0.13 in3.3 mm
12:12 PM 81.0°F27.2°C 68.6°F20.3°C 66% 8.0 mph S12.9 kmh S 17.0 mph27.4 kmh 29.89 in1012.2 mb 0.00 in0.0 mm 0.00 in0.0 mm 0.13 in3.3 mm
12:14 PM 80.8°F27.1°C 67.9°F19.9°C 65% 7.0 mph S11.3 kmh S 15.0 mph24.1 kmh 29.89 in1012.2 mb 0.00 in0.0 mm 0.00 in0.0 mm 0.13 in3.3 mm
12:16 PM 80.7°F27.1°C 67.8°F19.9°C 65% 7.0 mph S11.3 kmh S 15.0 mph24.1 kmh 29.89 in1012.2 mb 0.00 in0.0 mm 0.00 in0.0 mm 0.13 in3.3 mm
12:18 PM 80.6°F27.0°C 67.7°F19.8°C 65% 7.0 mph S11.3 kmh S 15.0 mph24.1 kmh 29.89 in1012.2 mb 0.00 in0.0 mm 0.00 in0.0 mm 0.13 in3.3 mm
12:20 PM 80.5°F26.9°C 67.6°F19.8°C 65% 8.0 mph S12.9 kmh S 15.0 mph24.1 kmh 29.89 in1012.2 mb 0.00 in0.0 mm 0.00 in0.0 mm 0.13 in3.3 mm
12:22 PM 80.5°F26.9°C 67.6°F19.8°C 65% 9.0 mph S14.5 kmh S 23.0 mph37.0 kmh 29.89 in1012.2 mb 0.00 in0.0 mm 0.00 in0.0 mm 0.13 in3.3 mm
12:24 PM 80.5°F26.9°C 67.2°F19.6°C 64% 9.0 mph S14.5 kmh S 23.0 mph37.0 kmh 29.89 in1012.2 mb 0.00 in0.0 mm 0.00 in0.0 mm 0.13 in3.3 mm
12:26 PM 80.4°F26.9°C 67.6°F19.8°C 65% 10.0 mph S16.1 kmh S 23.0 mph37.0 kmh 29.89 in1012.2 mb 0.00 in0.0 mm 0.00 in0.0 mm 0.13 in3.3 mm
12:28 PM 80.3°F26.8°C 67.5°F19.7°C 65% 11.0 mph S17.7 kmh S 23.0 mph37.0 kmh 29.89 in1012.2 mb 0.00 in0.0 mm 0.00 in0.0 mm 0.13 in3.3 mm
12:30 PM 80.3°F26.8°C 67.5°F19.7°C 65% 11.0 mph S17.7 kmh S 23.0 mph37.0 kmh 29.89 in1012.2 mb 0.00 in0.0 mm 0.00 in0.0 mm 0.13 in3.3 mm
12:32 PM 80.2°F26.8°C 67.4°F19.7°C 65% 11.0 mph S17.7 kmh S 19.0 mph30.6 kmh 29.89 in1012.2 mb 0.00 in0.0 mm 0.00 in0.0 mm 0.13 in3.3 mm
12:34 PM 80.1°F26.7°C 67.3°F19.6°C 65% 11.0 mph S17.7 kmh S 18.0 mph29.0 kmh 29.89 in1012.2 mb 0.00 in0.0 mm 0.00 in0.0 mm 0.13 in3.3 mm
12:36 PM 80.0°F26.7°C 67.6°F19.8°C 66% 10.0 mph S16.1 kmh S 18.0 mph29.0 kmh 29.89 in1012.2 mb 0.00 in0.0 mm 0.00 in0.0 mm 0.13 in3.3 mm
12:38 PM 79.9°F26.6°C 67.5°F19.7°C 66% 10.0 mph S16.1 kmh S 16.0 mph25.7 kmh 29.89 in1012.2 mb 0.00 in0.0 mm 0.00 in0.0 mm 0.13 in3.3 mm
12:40 PM 79.9°F26.6°C 67.5°F19.7°C 66% 9.0 mph S14.5 kmh S 16.0 mph25.7 kmh 29.89 in1012.2 mb 0.00 in0.0 mm 0.00 in0.0 mm 0.13 in3.3 mm
12:42 PM 79.8°F26.6°C 67.4°F19.7°C 66% 9.0 mph S14.5 kmh S 16.0 mph25.7 kmh 29.89 in1012.2 mb 0.00 in0.0 mm 0.00 in0.0 mm 0.13 in3.3 mm
12:44 PM 79.9°F26.6°C 68.0°F20.0°C 67% 8.0 mph SSW12.9 kmh SSW 16.0 mph25.7 kmh 29.89 in1012.2 mb 0.00 in0.0 mm 0.00 in0.0 mm 0.13 in3.3 mm
12:46 PM 79.8°F26.6°C 67.9°F19.9°C 67% 8.0 mph S12.9 kmh S 18.0 mph29.0 kmh 29.89 in1012.2 mb 0.00 in0.0 mm 0.00 in0.0 mm 0.13 in3.3 mm
12:48 PM 79.7°F26.5°C 67.8°F19.9°C 67% 8.0 mph S12.9 kmh S 18.0 mph29.0 kmh 29.89 in1012.2 mb 0.00 in0.0 mm 0.00 in0.0 mm 0.13 in3.3 mm
12:50 PM 79.7°F26.5°C 67.8°F19.9°C 67% 8.0 mph SSW12.9 kmh SSW 18.0 mph29.0 kmh 29.88 in1011.9 mb 0.00 in0.0 mm 0.00 in0.0 mm 0.13 in3.3 mm
12:52 PM 79.6°F26.4°C 67.7°F19.8°C 67% 8.0 mph SSW12.9 kmh SSW 18.0 mph29.0 kmh 29.89 in1012.2 mb 0.00 in0.0 mm 0.00 in0.0 mm 0.13 in3.3 mm
12:54 PM 79.6°F26.4°C 68.1°F20.1°C 68% 8.0 mph SSW12.9 kmh SSW 18.0 mph29.0 kmh 29.89 in1012.2 mb 0.00 in0.0 mm 0.00 in0.0 mm 0.13 in3.3 mm
12:56 PM 79.6°F26.4°C 68.1°F20.1°C 68% 8.0 mph SSW12.9 kmh SSW 16.0 mph25.7 kmh 29.89 in1012.2 mb 0.00 in0.0 mm 0.00 in0.0 mm 0.13 in3.3 mm
12:58 PM 79.5°F26.4°C 68.0°F20.0°C 68% 7.0 mph SSW11.3 kmh SSW 13.0 mph20.9 kmh 29.89 in1012.2 mb 0.00 in0.0 mm 0.00 in0.0 mm 0.13 in3.3 mm
01:00 PM 79.5°F26.4°C 68.0°F20.0°C 68% 7.0 mph SSW11.3 kmh SSW 13.0 mph20.9 kmh 29.89 in1012.2 mb 0.00 in0.0 mm 0.00 in0.0 mm 0.13 in3.3 mm
01:02 PM 79.5°F26.4°C 68.0°F20.0°C 68% 7.0 mph SSW11.3 kmh SSW 13.0 mph20.9 kmh 29.88 in1011.9 mb 0.00 in0.0 mm 0.00 in0.0 mm 0.13 in3.3 mm
01:04 PM 79.5°F26.4°C 68.0°F20.0°C 68% 7.0 mph SSW11.3 kmh SSW 15.0 mph24.1 kmh 29.88 in1011.9 mb 0.00 in0.0 mm 0.00 in0.0 mm 0.13 in3.3 mm
01:06 PM 79.4°F26.3°C 67.9°F19.9°C 68% 7.0 mph SSW11.3 kmh SSW 15.0 mph24.1 kmh 29.88 in1011.9 mb 0.00 in0.0 mm 0.00 in0.0 mm 0.13 in3.3 mm
01:08 PM 79.4°F26.3°C 67.9°F19.9°C 68% 7.0 mph SSW11.3 kmh SSW 15.0 mph24.1 kmh 29.88 in1011.9 mb 0.00 in0.0 mm 0.00 in0.0 mm 0.13 in3.3 mm
01:10 PM 79.4°F26.3°C 67.9°F19.9°C 68% 7.0 mph SSW11.3 kmh SSW 15.0 mph24.1 kmh 29.88 in1011.9 mb 0.00 in0.0 mm 0.00 in0.0 mm 0.13 in3.3 mm
01:12 PM 79.4°F26.3°C 67.9°F19.9°C 68% 7.0 mph SSW11.3 kmh SSW 15.0 mph24.1 kmh 29.88 in1011.9 mb 0.00 in0.0 mm 0.00 in0.0 mm 0.13 in3.3 mm
01:14 PM 79.4°F26.3°C 67.9°F19.9°C 68% 7.0 mph SSW11.3 kmh SSW 14.0 mph22.5 kmh 29.88 in1011.9 mb 0.00 in0.0 mm 0.00 in0.0 mm 0.13 in3.3 mm
01:16 PM 79.3°F26.3°C 68.2°F20.1°C 69% 6.0 mph SSW9.7 kmh SSW 13.0 mph20.9 kmh 29.88 in1011.9 mb 0.00 in0.0 mm 0.00 in0.0 mm 0.13 in3.3 mm
01:18 PM 79.2°F26.2°C 68.1°F20.1°C 69% 6.0 mph SSW9.7 kmh SSW 13.0 mph20.9 kmh 29.88 in1011.9 mb 0.00 in0.0 mm 0.00 in0.0 mm 0.13 in3.3 mm
01:20 PM 79.2°F26.2°C 68.1°F20.1°C 69% 5.0 mph SSW8.0 kmh SSW 11.0 mph17.7 kmh 29.88 in1011.9 mb 0.00 in0.0 mm 0.00 in0.0 mm 0.13 in3.3 mm
01:22 PM 79.1°F26.2°C 68.5°F20.3°C 70% 5.0 mph SSW8.0 kmh SSW 11.0 mph17.7 kmh 29.88 in1011.9 mb 0.00 in0.0 mm 0.00 in0.0 mm 0.13 in3.3 mm
01:24 PM 79.1°F26.2°C 68.5°F20.3°C 70% 5.0 mph SSW8.0 kmh SSW 11.0 mph17.7 kmh 29.88 in1011.9 mb 0.00 in0.0 mm 0.00 in0.0 mm 0.13 in3.3 mm
01:26 PM 79.0°F26.1°C 68.4°F20.2°C 70% 5.0 mph SSW8.0 kmh SSW 11.0 mph17.7 kmh 29.88 in1011.9 mb 0.00 in0.0 mm 0.00 in0.0 mm 0.13 in3.3 mm
01:28 PM 79.0°F26.1°C 68.8°F20.4°C 71% 5.0 mph SSW8.0 kmh SSW 13.0 mph20.9 kmh 29.88 in1011.9 mb 0.00 in0.0 mm 0.00 in0.0 mm 0.13 in3.3 mm
01:30 PM 79.1°F26.2°C 68.9°F20.5°C 71% 5.0 mph SSW8.0 kmh SSW 13.0 mph20.9 kmh 29.88 in1011.9 mb 0.00 in0.0 mm 0.00 in0.0 mm 0.13 in3.3 mm
01:32 PM 79.1°F26.2°C 69.3°F20.7°C 72% 5.0 mph SSW8.0 kmh SSW 13.0 mph20.9 kmh 29.88 in1011.9 mb 0.00 in0.0 mm 0.00 in0.0 mm 0.13 in3.3 mm
01:34 PM 79.0°F26.1°C 69.2°F20.7°C 72% 5.0 mph SSW8.0 kmh SSW 13.0 mph20.9 kmh 29.88 in1011.9 mb 0.00 in0.0 mm 0.00 in0.0 mm 0.13 in3.3 mm
01:36 PM 78.9°F26.1°C 69.1°F20.6°C 72% 5.0 mph SSW8.0 kmh SSW 13.0 mph20.9 kmh 29.87 in1011.5 mb 0.00 in0.0 mm 0.00 in0.0 mm 0.13 in3.3 mm
01:38 PM 78.8°F26.0°C 69.0°F20.6°C 72% 5.0 mph SSW8.0 kmh SSW 13.0 mph20.9 kmh 29.87 in1011.5 mb 0.00 in0.0 mm 0.00 in0.0 mm 0.13 in3.3 mm
01:40 PM 78.8°F26.0°C 69.0°F20.6°C 72% 6.0 mph SSW9.7 kmh SSW 13.0 mph20.9 kmh 29.87 in1011.5 mb 0.00 in0.0 mm 0.00 in0.0 mm 0.13 in3.3 mm
01:42 PM 78.8°F26.0°C 68.6°F20.3°C 71% 6.0 mph SSW9.7 kmh SSW 13.0 mph20.9 kmh 29.87 in1011.5 mb 0.00 in0.0 mm 0.00 in0.0 mm 0.13 in3.3 mm
01:44 PM 78.8°F26.0°C 68.6°F20.3°C 71% 7.0 mph SSW11.3 kmh SSW 13.0 mph20.9 kmh 29.87 in1011.5 mb 0.00 in0.0 mm 0.00 in0.0 mm 0.13 in3.3 mm
01:46 PM 78.8°F26.0°C 68.6°F20.3°C 71% 7.0 mph SSW11.3 kmh SSW 13.0 mph20.9 kmh 29.87 in1011.5 mb 0.00 in0.0 mm 0.00 in0.0 mm 0.13 in3.3 mm
01:48 PM 78.8°F26.0°C 69.0°F20.6°C 72% 7.0 mph SSW11.3 kmh SSW 14.0 mph22.5 kmh 29.87 in1011.5 mb 0.00 in0.0 mm 0.00 in0.0 mm 0.13 in3.3 mm
01:50 PM 78.8°F26.0°C 69.0°F20.6°C 72% 7.0 mph SSW11.3 kmh SSW 14.0 mph22.5 kmh 29.87 in1011.5 mb 0.00 in0.0 mm 0.00 in0.0 mm 0.13 in3.3 mm
01:52 PM 78.8°F26.0°C 69.0°F20.6°C 72% 6.0 mph S9.7 kmh S 14.0 mph22.5 kmh 29.87 in1011.5 mb 0.00 in0.0 mm 0.00 in0.0 mm 0.13 in3.3 mm
01:54 PM 78.8°F26.0°C 69.0°F20.6°C 72% 6.0 mph S9.7 kmh S 14.0 mph22.5 kmh 29.87 in1011.5 mb 0.00 in0.0 mm 0.00 in0.0 mm 0.13 in3.3 mm
01:56 PM 78.8°F26.0°C 69.0°F20.6°C 72% 6.0 mph S9.7 kmh S 15.0 mph24.1 kmh 29.87 in1011.5 mb 0.00 in0.0 mm 0.00 in0.0 mm 0.13 in3.3 mm
01:58 PM 78.8°F26.0°C 69.0°F20.6°C 72% 6.0 mph S9.7 kmh S 15.0 mph24.1 kmh 29.87 in1011.5 mb 0.00 in0.0 mm 0.00 in0.0 mm 0.13 in3.3 mm
02:00 PM 78.8°F26.0°C 69.0°F20.6°C 72% 7.0 mph S11.3 kmh S 15.0 mph24.1 kmh 29.86 in1011.2 mb 0.00 in0.0 mm 0.00 in0.0 mm 0.13 in3.3 mm
02:02 PM 78.9°F26.1°C 69.1°F20.6°C 72% 7.0 mph S11.3 kmh S 15.0 mph24.1 kmh 29.86 in1011.2 mb 0.00 in0.0 mm 0.00 in0.0 mm 0.13 in3.3 mm
02:04 PM 78.9°F26.1°C 68.7°F20.4°C 71% 7.0 mph S11.3 kmh S 17.0 mph27.4 kmh 29.86 in1011.2 mb 0.00 in0.0 mm 0.00 in0.0 mm 0.13 in3.3 mm
02:06 PM 78.9°F26.1°C 68.7°F20.4°C 71% 7.0 mph S11.3 kmh S 17.0 mph27.4 kmh 29.86 in1011.2 mb 0.00 in0.0 mm 0.00 in0.0 mm 0.13 in3.3 mm
02:08 PM 78.9°F26.1°C 69.1°F20.6°C 72% 7.0 mph SSW11.3 kmh SSW 17.0 mph27.4 kmh 29.86 in1011.2 mb 0.00 in0.0 mm 0.00 in0.0 mm 0.13 in3.3 mm
02:10 PM 78.9°F26.1°C 69.1°F20.6°C 72% 7.0 mph SSW11.3 kmh SSW 17.0 mph27.4 kmh 29.86 in1011.2 mb 0.00 in0.0 mm 0.00 in0.0 mm 0.13 in3.3 mm
02:12 PM 78.9°F26.1°C 69.1°F20.6°C 72% 7.0 mph SSW11.3 kmh SSW 17.0 mph27.4 kmh 29.86 in1011.2 mb 0.00 in0.0 mm 0.00 in0.0 mm 0.13 in3.3 mm
02:14 PM 78.9°F26.1°C 69.1°F20.6°C 72% 7.0 mph SSW11.3 kmh SSW 13.0 mph20.9 kmh 29.86 in1011.2 mb 0.00 in0.0 mm 0.00 in0.0 mm 0.13 in3.3 mm
02:16 PM 78.9°F26.1°C 69.1°F20.6°C 72% 7.0 mph SSW11.3 kmh SSW 13.0 mph20.9 kmh 29.86 in1011.2 mb 0.00 in0.0 mm 0.00 in0.0 mm 0.13 in3.3 mm
02:18 PM 78.9°F26.1°C 69.1°F20.6°C 72% 7.0 mph SSW11.3 kmh SSW 13.0 mph20.9 kmh 29.86 in1011.2 mb 0.00 in0.0 mm 0.00 in0.0 mm 0.13 in3.3 mm
02:20 PM 78.9°F26.1°C 69.1°F20.6°C 72% 8.0 mph S12.9 kmh S 16.0 mph25.7 kmh 29.86 in1011.2 mb 0.00 in0.0 mm 0.00 in0.0 mm 0.13 in3.3 mm
02:22 PM 79.0°F26.1°C 69.2°F20.7°C 72% 7.0 mph S11.3 kmh S 16.0 mph25.7 kmh 29.86 in1011.2 mb 0.00 in0.0 mm 0.00 in0.0 mm 0.13 in3.3 mm
02:24 PM 79.0°F26.1°C 69.2°F20.7°C 72% 7.0 mph S11.3 kmh S 16.0 mph25.7 kmh 29.86 in1011.2 mb 0.00 in0.0 mm 0.00 in0.0 mm 0.13 in3.3 mm
02:26 PM 78.9°F26.1°C 69.1°F20.6°C 72% 6.0 mph S9.7 kmh S 16.0 mph25.7 kmh 29.86 in1011.2 mb 0.00 in0.0 mm 0.00 in0.0 mm 0.13 in3.3 mm
02:28 PM 78.8°F26.0°C 69.0°F20.6°C 72% 6.0 mph S9.7 kmh S 16.0 mph25.7 kmh 29.86 in1011.2 mb 0.00 in0.0 mm 0.00 in0.0 mm 0.13 in3.3 mm
02:30 PM 78.8°F26.0°C 69.0°F20.6°C 72% 5.0 mph S8.0 kmh S 11.0 mph17.7 kmh 29.86 in1011.2 mb 0.00 in0.0 mm 0.00 in0.0 mm 0.13 in3.3 mm
02:32 PM 78.7°F25.9°C 68.9°F20.5°C 72% 6.0 mph S9.7 kmh S 14.0 mph22.5 kmh 29.85 in1010.8 mb 0.00 in0.0 mm 0.00 in0.0 mm 0.13 in3.3 mm
02:34 PM 78.7°F25.9°C 68.9°F20.5°C 72% 6.0 mph S9.7 kmh S 14.0 mph22.5 kmh 29.85 in1010.8 mb 0.00 in0.0 mm 0.00 in0.0 mm 0.13 in3.3 mm
02:36 PM 78.7°F25.9°C 68.9°F20.5°C 72% 6.0 mph S9.7 kmh S 14.0 mph22.5 kmh 29.85 in1010.8 mb 0.00 in0.0 mm 0.00 in0.0 mm 0.13 in3.3 mm
02:38 PM 78.7°F25.9°C 68.9°F20.5°C 72% 7.0 mph S11.3 kmh S 18.0 mph29.0 kmh 29.85 in1010.8 mb 0.00 in0.0 mm 0.00 in0.0 mm 0.13 in3.3 mm
02:40 PM 78.7°F25.9°C 69.3°F20.7°C 73% 7.0 mph S11.3 kmh S 18.0 mph29.0 kmh 29.85 in1010.8 mb 0.00 in0.0 mm 0.00 in0.0 mm 0.13 in3.3 mm
02:42 PM 78.6°F25.9°C 69.2°F20.7°C 73% 6.0 mph S9.7 kmh S 18.0 mph29.0 kmh 29.85 in1010.8 mb 0.00 in0.0 mm 0.00 in0.0 mm 0.13 in3.3 mm
02:44 PM 78.5°F25.8°C 69.1°F20.6°C 73% 6.0 mph S9.7 kmh S 18.0 mph29.0 kmh 29.85 in1010.8 mb 0.00 in0.0 mm 0.00 in0.0 mm 0.13 in3.3 mm
02:46 PM 78.5°F25.8°C 69.1°F20.6°C 73% 6.0 mph S9.7 kmh S 18.0 mph29.0 kmh 29.85 in1010.8 mb 0.00 in0.0 mm 0.00 in0.0 mm 0.13 in3.3 mm
02:48 PM 78.4°F25.8°C 69.4°F20.8°C 74% 6.0 mph SSW9.7 kmh SSW 13.0 mph20.9 kmh 29.85 in1010.8 mb 0.00 in0.0 mm 0.00 in0.0 mm 0.13 in3.3 mm
02:50 PM 78.4°F25.8°C 69.4°F20.8°C 74% 5.0 mph SSW8.0 kmh SSW 13.0 mph20.9 kmh 29.85 in1010.8 mb 0.00 in0.0 mm 0.00 in0.0 mm 0.13 in3.3 mm
02:52 PM 78.4°F25.8°C 69.4°F20.8°C 74% 5.0 mph SSW8.0 kmh SSW 13.0 mph20.9 kmh 29.84 in1010.5 mb 0.00 in0.0 mm 0.00 in0.0 mm 0.13 in3.3 mm
02:54 PM 78.3°F25.7°C 69.3°F20.7°C 74% 4.0 mph SSW6.4 kmh SSW 13.0 mph20.9 kmh 29.84 in1010.5 mb 0.00 in0.0 mm 0.00 in0.0 mm 0.13 in3.3 mm
02:56 PM 78.2°F25.7°C 69.6°F20.9°C 75% 4.0 mph SSW6.4 kmh SSW 10.0 mph16.1 kmh 29.85 in1010.8 mb 0.00 in0.0 mm 0.00 in0.0 mm 0.13 in3.3 mm
02:58 PM 78.1°F25.6°C 69.5°F20.8°C 75% 4.0 mph SSW6.4 kmh SSW 10.0 mph16.1 kmh 29.85 in1010.8 mb 0.00 in0.0 mm 0.00 in0.0 mm 0.13 in3.3 mm
03:00 PM 78.1°F25.6°C 69.5°F20.8°C 75% 4.0 mph SSW6.4 kmh SSW 9.0 mph14.5 kmh 29.84 in1010.5 mb 0.00 in0.0 mm 0.00 in0.0 mm 0.13 in3.3 mm
03:02 PM 78.0°F25.6°C 69.4°F20.8°C 75% 4.0 mph SSW6.4 kmh SSW 10.0 mph16.1 kmh 29.84 in1010.5 mb 0.00 in0.0 mm 0.00 in0.0 mm 0.13 in3.3 mm
03:04 PM 77.9°F25.5°C 69.3°F20.7°C 75% 4.0 mph S6.4 kmh S 10.0 mph16.1 kmh 29.84 in1010.5 mb 0.00 in0.0 mm 0.00 in0.0 mm 0.13 in3.3 mm
03:06 PM 77.9°F25.5°C 69.3°F20.7°C 75% 4.0 mph S6.4 kmh S 10.0 mph16.1 kmh 29.84 in1010.5 mb 0.00 in0.0 mm 0.00 in0.0 mm 0.13 in3.3 mm
03:08 PM 77.9°F25.5°C 69.3°F20.7°C 75% 4.0 mph S6.4 kmh S 10.0 mph16.1 kmh 29.84 in1010.5 mb 0.00 in0.0 mm 0.00 in0.0 mm 0.13 in3.3 mm
03:10 PM 77.9°F25.5°C 69.3°F20.7°C 75% 5.0 mph S8.0 kmh S 15.0 mph24.1 kmh 29.84 in1010.5 mb 0.00 in0.0 mm 0.00 in0.0 mm 0.13 in3.3 mm
03:12 PM 78.1°F25.6°C 69.5°F20.8°C 75% 6.0 mph S9.7 kmh S 15.0 mph24.1 kmh 29.84 in1010.5 mb 0.00 in0.0 mm 0.00 in0.0 mm 0.13 in3.3 mm
03:14 PM 78.1°F25.6°C 69.1°F20.6°C 74% 5.0 mph S8.0 kmh S 15.0 mph24.1 kmh 29.84 in1010.5 mb 0.00 in0.0 mm 0.00 in0.0 mm 0.13 in3.3 mm
03:16 PM 78.2°F25.7°C 69.2°F20.7°C 74% 6.0 mph S9.7 kmh S 15.0 mph24.1 kmh 29.84 in1010.5 mb 0.00 in0.0 mm 0.00 in0.0 mm 0.13 in3.3 mm
03:18 PM 78.3°F25.7°C 69.3°F20.7°C 74% 6.0 mph S9.7 kmh S 15.0 mph24.1 kmh 29.84 in1010.5 mb 0.00 in0.0 mm 0.00 in0.0 mm 0.13 in3.3 mm
03:20 PM 78.3°F25.7°C 69.7°F20.9°C 75% 6.0 mph S9.7 kmh S 11.0 mph17.7 kmh 29.84 in1010.5 mb 0.00 in0.0 mm 0.00 in0.0 mm 0.13 in3.3 mm
03:22 PM 78.3°F25.7°C 69.7°F20.9°C 75% 5.0 mph S8.0 kmh S 10.0 mph16.1 kmh 29.84 in1010.5 mb 0.00 in0.0 mm 0.00 in0.0 mm 0.13 in3.3 mm
03:24 PM 78.1°F25.6°C 69.9°F21.1°C 76% 6.0 mph S9.7 kmh S 12.0 mph19.3 kmh 29.84 in1010.5 mb 0.00 in0.0 mm 0.00 in0.0 mm 0.13 in3.3 mm
03:26 PM 77.9°F25.5°C 69.7°F20.9°C 76% 6.0 mph S9.7 kmh S 14.0 mph22.5 kmh 29.84 in1010.5 mb 0.00 in0.0 mm 0.00 in0.0 mm 0.13 in3.3 mm
03:28 PM 77.6°F25.3°C 69.8°F21.0°C 77% 6.0 mph S9.7 kmh S 14.0 mph22.5 kmh 29.84 in1010.5 mb 0.00 in0.0 mm 0.00 in0.0 mm 0.13 in3.3 mm
03:30 PM 77.3°F25.2°C 69.9°F21.1°C 78% 6.0 mph S9.7 kmh S 14.0 mph22.5 kmh 29.84 in1010.5 mb 0.00 in0.0 mm 0.00 in0.0 mm 0.13 in3.3 mm
03:32 PM 77.1°F25.1°C 69.7°F20.9°C 78% 6.0 mph S9.7 kmh S 14.0 mph22.5 kmh 29.84 in1010.5 mb 0.00 in0.0 mm 0.00 in0.0 mm 0.13 in3.3 mm
03:34 PM 76.8°F24.9°C 69.8°F21.0°C 79% 7.0 mph S11.3 kmh S 14.0 mph22.5 kmh 29.83 in1010.2 mb 0.00 in0.0 mm 0.00 in0.0 mm 0.13 in3.3 mm
03:36 PM 76.7°F24.8°C 69.7°F20.9°C 79% 7.0 mph S11.3 kmh S 15.0 mph24.1 kmh 29.84 in1010.5 mb 0.00 in0.0 mm 0.00 in0.0 mm 0.13 in3.3 mm
03:38 PM 76.5°F24.7°C 69.5°F20.8°C 79% 7.0 mph S11.3 kmh S 15.0 mph24.1 kmh 29.84 in1010.5 mb 0.00 in0.0 mm 0.00 in0.0 mm 0.13 in3.3 mm
03:40 PM 76.4°F24.7°C 69.8°F21.0°C 80% 6.0 mph S9.7 kmh S 15.0 mph24.1 kmh 29.83 in1010.2 mb 0.00 in0.0 mm 0.00 in0.0 mm 0.13 in3.3 mm
03:42 PM 76.4°F24.7°C 70.1°F21.2°C 81% 6.0 mph S9.7 kmh S 15.0 mph24.1 kmh 29.83 in1010.2 mb 0.00 in0.0 mm 0.00 in0.0 mm 0.13 in3.3 mm
03:44 PM 76.2°F24.6°C 69.9°F21.1°C 81% 5.0 mph S8.0 kmh S 15.0 mph24.1 kmh 29.83 in1010.2 mb 0.00 in0.0 mm 0.00 in0.0 mm 0.13 in3.3 mm
03:46 PM 76.1°F24.5°C 70.2°F21.2°C 82% 5.0 mph S8.0 kmh S 10.0 mph16.1 kmh 29.83 in1010.2 mb 0.00 in0.0 mm 0.00 in0.0 mm 0.13 in3.3 mm
03:48 PM 76.0°F24.4°C 70.1°F21.2°C 82% 4.0 mph S6.4 kmh S 9.0 mph14.5 kmh 29.83 in1010.2 mb 0.00 in0.0 mm 0.00 in0.0 mm 0.13 in3.3 mm
03:50 PM 75.8°F24.3°C 69.9°F21.1°C 82% 4.0 mph S6.4 kmh S 9.0 mph14.5 kmh 29.83 in1010.2 mb 0.00 in0.0 mm 0.00 in0.0 mm 0.13 in3.3 mm
03:52 PM 75.7°F24.3°C 70.2°F21.2°C 83% 4.0 mph S6.4 kmh S 9.0 mph14.5 kmh 29.83 in1010.2 mb 0.00 in0.0 mm 0.00 in0.0 mm 0.13 in3.3 mm
03:54 PM 75.5°F24.2°C 70.3°F21.3°C 84% 4.0 mph S6.4 kmh S 9.0 mph14.5 kmh 29.83 in1010.2 mb 0.00 in0.0 mm 0.00 in0.0 mm 0.13 in3.3 mm
03:56 PM 75.3°F24.1°C 70.1°F21.2°C 84% 3.0 mph S4.8 kmh S 8.0 mph12.9 kmh 29.83 in1010.2 mb 0.00 in0.0 mm 0.00 in0.0 mm 0.13 in3.3 mm
03:58 PM 75.2°F24.0°C 70.4°F21.3°C 85% 3.0 mph S4.8 kmh S 8.0 mph12.9 kmh 29.83 in1010.2 mb 0.00 in0.0 mm 0.00 in0.0 mm 0.13 in3.3 mm
04:00 PM 75.1°F23.9°C 70.3°F21.3°C 85% 3.0 mph S4.8 kmh S 8.0 mph12.9 kmh 29.83 in1010.2 mb 0.00 in0.0 mm 0.00 in0.0 mm 0.13 in3.3 mm
04:02 PM 74.9°F23.8°C 70.4°F21.3°C 86% 3.0 mph S4.8 kmh S 8.0 mph12.9 kmh 29.83 in1010.2 mb 0.00 in0.0 mm 0.00 in0.0 mm 0.13 in3.3 mm
04:04 PM 74.8°F23.8°C 70.3°F21.3°C 86% 3.0 mph S4.8 kmh S 8.0 mph12.9 kmh 29.83 in1010.2 mb 0.00 in0.0 mm 0.00 in0.0 mm 0.13 in3.3 mm
04:06 PM 74.6°F23.7°C 70.1°F21.2°C 86% 3.0 mph S4.8 kmh S 8.0 mph12.9 kmh 29.83 in1010.2 mb 0.00 in0.0 mm 0.00 in0.0 mm 0.13 in3.3 mm
04:08 PM 74.6°F23.7°C 69.8°F21.0°C 85% 3.0 mph S4.8 kmh S 8.0 mph12.9 kmh 29.83 in1010.2 mb 0.00 in0.0 mm 0.00 in0.0 mm 0.13 in3.3 mm
04:10 PM 74.5°F23.6°C 69.7°F20.9°C 85% 4.0 mph S6.4 kmh S 8.0 mph12.9 kmh 29.83 in1010.2 mb 0.00 in0.0 mm 0.00 in0.0 mm 0.13 in3.3 mm
04:12 PM 74.5°F23.6°C 69.7°F20.9°C 85% 4.0 mph S6.4 kmh S 8.0 mph12.9 kmh 29.83 in1010.2 mb 0.00 in0.0 mm 0.00 in0.0 mm 0.13 in3.3 mm
04:14 PM 74.6°F23.7°C 69.8°F21.0°C 85% 4.0 mph S6.4 kmh S 8.0 mph12.9 kmh 29.83 in1010.2 mb 0.00 in0.0 mm 0.00 in0.0 mm 0.13 in3.3 mm
04:16 PM 74.6°F23.7°C 69.8°F21.0°C 85% 4.0 mph S6.4 kmh S 7.0 mph11.3 kmh 29.83 in1010.2 mb 0.00 in0.0 mm 0.00 in0.0 mm 0.13 in3.3 mm
04:18 PM 74.6°F23.7°C 69.8°F21.0°C 85% 3.0 mph S4.8 kmh S 7.0 mph11.3 kmh 29.83 in1010.2 mb 0.00 in0.0 mm 0.00 in0.0 mm 0.13 in3.3 mm
04:20 PM 74.6°F23.7°C 69.8°F21.0°C 85% 3.0 mph S4.8 kmh S 6.0 mph9.7 kmh 29.82 in1009.8 mb 0.00 in0.0 mm 0.00 in0.0 mm 0.13 in3.3 mm
04:22 PM 74.6°F23.7°C 69.8°F21.0°C 85% 3.0 mph S4.8 kmh S 6.0 mph9.7 kmh 29.82 in1009.8 mb 0.00 in0.0 mm 0.00 in0.0 mm 0.13 in3.3 mm
04:24 PM 74.6°F23.7°C 69.8°F21.0°C 85% 3.0 mph S4.8 kmh S 7.0 mph11.3 kmh 29.82 in1009.8 mb 0.00 in0.0 mm 0.00 in0.0 mm 0.13 in3.3 mm
04:26 PM 74.8°F23.8°C 69.6°F20.9°C 84% 4.0 mph S6.4 kmh S 8.0 mph12.9 kmh 29.82 in1009.8 mb 0.00 in0.0 mm 0.00 in0.0 mm 0.13 in3.3 mm
04:28 PM 74.9°F23.8°C 69.7°F20.9°C 84% 4.0 mph S6.4 kmh S 8.0 mph12.9 kmh 29.82 in1009.8 mb 0.00 in0.0 mm 0.00 in0.0 mm 0.13 in3.3 mm
04:30 PM 75.0°F23.9°C 69.5°F20.8°C 83% 4.0 mph S6.4 kmh S 9.0 mph14.5 kmh 29.82 in1009.8 mb 0.00 in0.0 mm 0.00 in0.0 mm 0.13 in3.3 mm
04:32 PM 75.2°F24.0°C 69.7°F20.9°C 83% 5.0 mph S8.0 kmh S 9.0 mph14.5 kmh 29.82 in1009.8 mb 0.00 in0.0 mm 0.00 in0.0 mm 0.13 in3.3 mm
04:34 PM 75.3°F24.1°C 69.8°F21.0°C 83% 5.0 mph S8.0 kmh S 9.0 mph14.5 kmh 29.82 in1009.8 mb 0.00 in0.0 mm 0.00 in0.0 mm 0.13 in3.3 mm
04:36 PM 75.4°F24.1°C 69.9°F21.1°C 83% 5.0 mph S8.0 kmh S 9.0 mph14.5 kmh 29.82 in1009.8 mb 0.00 in0.0 mm 0.00 in0.0 mm 0.13 in3.3 mm
04:38 PM 75.5°F24.2°C 70.0°F21.1°C 83% 5.0 mph S8.0 kmh S 9.0 mph14.5 kmh 29.82 in1009.8 mb 0.00 in0.0 mm 0.00 in0.0 mm 0.13 in3.3 mm
04:40 PM 75.6°F24.2°C 69.7°F20.9°C 82% 5.0 mph S8.0 kmh S 9.0 mph14.5 kmh 29.82 in1009.8 mb 0.00 in0.0 mm 0.00 in0.0 mm 0.13 in3.3 mm
04:42 PM 75.6°F24.2°C 69.7°F20.9°C 82% 5.0 mph S8.0 kmh S 9.0 mph14.5 kmh 29.82 in1009.8 mb 0.00 in0.0 mm 0.00 in0.0 mm 0.13 in3.3 mm
04:44 PM 75.7°F24.3°C 69.8°F21.0°C 82% 5.0 mph S8.0 kmh S 9.0 mph14.5 kmh 29.82 in1009.8 mb 0.00 in0.0 mm 0.00 in0.0 mm 0.13 in3.3 mm
04:46 PM 75.8°F24.3°C 69.9°F21.1°C 82% 4.0 mph S6.4 kmh S 12.0 mph19.3 kmh 29.82 in1009.8 mb 0.00 in0.0 mm 0.00 in0.0 mm 0.13 in3.3 mm
04:48 PM 75.8°F24.3°C 69.6°F20.9°C 81% 5.0 mph S8.0 kmh S 12.0 mph19.3 kmh 29.82 in1009.8 mb 0.00 in0.0 mm 0.00 in0.0 mm 0.13 in3.3 mm
04:50 PM 75.9°F24.4°C 69.6°F20.9°C 81% 5.0 mph S8.0 kmh S 12.0 mph19.3 kmh 29.82 in1009.8 mb 0.00 in0.0 mm 0.00 in0.0 mm 0.13 in3.3 mm
04:52 PM 76.1°F24.5°C 69.8°F21.0°C 81% 5.0 mph S8.0 kmh S 12.0 mph19.3 kmh 29.82 in1009.8 mb 0.00 in0.0 mm 0.00 in0.0 mm 0.13 in3.3 mm
04:54 PM 76.2°F24.6°C 69.9°F21.1°C 81% 6.0 mph S9.7 kmh S 12.0 mph19.3 kmh 29.82 in1009.8 mb 0.00 in0.0 mm 0.00 in0.0 mm 0.13 in3.3 mm
04:56 PM 76.3°F24.6°C 70.0°F21.1°C 81% 6.0 mph S9.7 kmh S 12.0 mph19.3 kmh 29.81 in1009.5 mb 0.00 in0.0 mm 0.00 in0.0 mm 0.13 in3.3 mm
04:58 PM 76.3°F24.6°C 70.0°F21.1°C 81% 6.0 mph S9.7 kmh S 12.0 mph19.3 kmh 29.81 in1009.5 mb 0.00 in0.0 mm 0.00 in0.0 mm 0.13 in3.3 mm
05:00 PM 76.4°F24.7°C 69.8°F21.0°C 80% 5.0 mph S8.0 kmh S 10.0 mph16.1 kmh 29.81 in1009.5 mb 0.00 in0.0 mm 0.00 in0.0 mm 0.13 in3.3 mm
05:02 PM 76.5°F24.7°C 70.2°F21.2°C 81% 5.0 mph S8.0 kmh S 10.0 mph16.1 kmh 29.81 in1009.5 mb 0.00 in0.0 mm 0.00 in0.0 mm 0.13 in3.3 mm
05:04 PM 76.5°F24.7°C 69.9°F21.1°C 80% 5.0 mph S8.0 kmh S 10.0 mph16.1 kmh 29.81 in1009.5 mb 0.00 in0.0 mm 0.00 in0.0 mm 0.13 in3.3 mm
05:06 PM 76.6°F24.8°C 70.0°F21.1°C 80% 5.0 mph S8.0 kmh S 10.0 mph16.1 kmh 29.81 in1009.5 mb 0.00 in0.0 mm 0.00 in0.0 mm 0.13 in3.3 mm
05:08 PM 76.6°F24.8°C 70.0°F21.1°C 80% 5.0 mph S8.0 kmh S 10.0 mph16.1 kmh 29.81 in1009.5 mb 0.00 in0.0 mm 0.00 in0.0 mm 0.13 in3.3 mm
05:10 PM 76.6°F24.8°C 70.0°F21.1°C 80% 5.0 mph S8.0 kmh S 10.0 mph16.1 kmh 29.80 in1009.1 mb 0.00 in0.0 mm 0.00 in0.0 mm 0.13 in3.3 mm
05:12 PM 76.7°F24.8°C 70.1°F21.2°C 80% 6.0 mph S9.7 kmh S 10.0 mph16.1 kmh 29.80 in1009.1 mb 0.00 in0.0 mm 0.00 in0.0 mm 0.13 in3.3 mm
05:14 PM 76.8°F24.9°C 70.2°F21.2°C 80% 6.0 mph S9.7 kmh S 10.0 mph16.1 kmh 29.80 in1009.1 mb 0.00 in0.0 mm 0.00 in0.0 mm 0.13 in3.3 mm
05:16 PM 76.8°F24.9°C 70.2°F21.2°C 80% 6.0 mph S9.7 kmh S 10.0 mph16.1 kmh 29.80 in1009.1 mb 0.00 in0.0 mm 0.00 in0.0 mm 0.13 in3.3 mm
05:18 PM 76.8°F24.9°C 69.8°F21.0°C 79% 6.0 mph S9.7 kmh S 10.0 mph16.1 kmh 29.80 in1009.1 mb 0.00 in0.0 mm 0.00 in0.0 mm 0.13 in3.3 mm
05:20 PM 76.9°F24.9°C 69.9°F21.1°C 79% 5.0 mph S8.0 kmh S 10.0 mph16.1 kmh 29.80 in1009.1 mb 0.00 in0.0 mm 0.00 in0.0 mm 0.13 in3.3 mm
05:22 PM 76.9°F24.9°C 69.9°F21.1°C 79% 5.0 mph S8.0 kmh S 10.0 mph16.1 kmh 29.80 in1009.1 mb 0.00 in0.0 mm 0.00 in0.0 mm 0.13 in3.3 mm
05:24 PM 76.9°F24.9°C 69.9°F21.1°C 79% 6.0 mph S9.7 kmh S 10.0 mph16.1 kmh 29.80 in1009.1 mb 0.00 in0.0 mm 0.00 in0.0 mm 0.13 in3.3 mm
05:26 PM 76.9°F24.9°C 69.9°F21.1°C 79% 6.0 mph S9.7 kmh S 10.0 mph16.1 kmh 29.79 in1008.8 mb 0.00 in0.0 mm 0.00 in0.0 mm 0.13 in3.3 mm
05:28 PM 76.9°F24.9°C 69.9°F21.1°C 79% 6.0 mph S9.7 kmh S 10.0 mph16.1 kmh 29.80 in1009.1 mb 0.00 in0.0 mm 0.00 in0.0 mm 0.13 in3.3 mm
05:30 PM 77.0°F25.0°C 70.0°F21.1°C 79% 6.0 mph S9.7 kmh S 11.0 mph17.7 kmh 29.80 in1009.1 mb 0.00 in0.0 mm 0.00 in0.0 mm 0.13 in3.3 mm
05:32 PM 76.9°F24.9°C 69.9°F21.1°C 79% 6.0 mph S9.7 kmh S 11.0 mph17.7 kmh 29.79 in1008.8 mb 0.00 in0.0 mm 0.00 in0.0 mm 0.13 in3.3 mm
05:34 PM 76.9°F24.9°C 69.9°F21.1°C 79% 6.0 mph S9.7 kmh S 11.0 mph17.7 kmh 29.79 in1008.8 mb 0.00 in0.0 mm 0.00 in0.0 mm 0.13 in3.3 mm
05:36 PM 76.9°F24.9°C 69.9°F21.1°C 79% 6.0 mph S9.7 kmh S 12.0 mph19.3 kmh 29.79 in1008.8 mb 0.00 in0.0 mm 0.00 in0.0 mm 0.13 in3.3 mm
05:38 PM 76.8°F24.9°C 69.8°F21.0°C 79% 6.0 mph S9.7 kmh S 12.0 mph19.3 kmh 29.78 in1008.5 mb 0.00 in0.0 mm 0.00 in0.0 mm 0.13 in3.3 mm
05:40 PM 76.9°F24.9°C 69.9°F21.1°C 79% 6.0 mph S9.7 kmh S 12.0 mph19.3 kmh 29.78 in1008.5 mb 0.00 in0.0 mm 0.00 in0.0 mm 0.13 in3.3 mm
05:42 PM 76.9°F24.9°C 69.9°F21.1°C 79% 6.0 mph S9.7 kmh S 12.0 mph19.3 kmh 29.79 in1008.8 mb 0.00 in0.0 mm 0.00 in0.0 mm 0.13 in3.3 mm
05:44 PM 76.9°F24.9°C 69.9°F21.1°C 79% 6.0 mph S9.7 kmh S 12.0 mph19.3 kmh 29.79 in1008.8 mb 0.00 in0.0 mm 0.00 in0.0 mm 0.13 in3.3 mm
05:46 PM 76.9°F24.9°C 69.9°F21.1°C 79% 6.0 mph S9.7 kmh S 12.0 mph19.3 kmh 29.79 in1008.8 mb 0.00 in0.0 mm 0.00 in0.0 mm 0.13 in3.3 mm
05:48 PM 76.9°F24.9°C 69.9°F21.1°C 79% 6.0 mph S9.7 kmh S 12.0 mph19.3 kmh 29.79 in1008.8 mb 0.00 in0.0 mm 0.00 in0.0 mm 0.13 in3.3 mm
05:50 PM 76.9°F24.9°C 69.9°F21.1°C 79% 6.0 mph S9.7 kmh S 12.0 mph19.3 kmh 29.79 in1008.8 mb 0.00 in0.0 mm 0.00 in0.0 mm 0.13 in3.3 mm
05:52 PM 76.9°F24.9°C 70.3°F21.3°C 80% 6.0 mph S9.7 kmh S 12.0 mph19.3 kmh 29.79 in1008.8 mb 0.00 in0.0 mm 0.00 in0.0 mm 0.13 in3.3 mm
05:54 PM 76.9°F24.9°C 70.3°F21.3°C 80% 7.0 mph S11.3 kmh S 12.0 mph19.3 kmh 29.79 in1008.8 mb 0.00 in0.0 mm 0.00 in0.0 mm 0.13 in3.3 mm
05:56 PM 76.8°F24.9°C 70.2°F21.2°C 80% 7.0 mph S11.3 kmh S 12.0 mph19.3 kmh 29.79 in1008.8 mb 0.00 in0.0 mm 0.00 in0.0 mm 0.13 in3.3 mm
05:58 PM 76.7°F24.8°C 70.1°F21.2°C 80% 8.0 mph S12.9 kmh S 14.0 mph22.5 kmh 29.80 in1009.1 mb 0.00 in0.0 mm 0.00 in0.0 mm 0.13 in3.3 mm
06:00 PM 76.6°F24.8°C 70.3°F21.3°C 81% 8.0 mph S12.9 kmh S 15.0 mph24.1 kmh 29.80 in1009.1 mb 0.00 in0.0 mm 0.00 in0.0 mm 0.13 in3.3 mm
06:02 PM 76.4°F24.7°C 70.1°F21.2°C 81% 8.0 mph S12.9 kmh S 15.0 mph24.1 kmh 29.79 in1008.8 mb 0.00 in0.0 mm 0.00 in0.0 mm 0.13 in3.3 mm
06:04 PM 76.2°F24.6°C 70.3°F21.3°C 82% 8.0 mph S12.9 kmh S 15.0 mph24.1 kmh 29.79 in1008.8 mb 0.00 in0.0 mm 0.00 in0.0 mm 0.13 in3.3 mm
06:06 PM 76.0°F24.4°C 70.5°F21.4°C 83% 8.0 mph S12.9 kmh S 15.0 mph24.1 kmh 29.80 in1009.1 mb 0.00 in0.0 mm 0.00 in0.0 mm 0.13 in3.3 mm
06:08 PM 75.7°F24.3°C 70.5°F21.4°C 84% 8.0 mph S12.9 kmh S 15.0 mph24.1 kmh 29.80 in1009.1 mb 0.00 in0.0 mm 0.00 in0.0 mm 0.13 in3.3 mm
06:10 PM 75.4°F24.1°C 70.6°F21.4°C 85% 8.0 mph S12.9 kmh S 13.0 mph20.9 kmh 29.80 in1009.1 mb 0.00 in0.0 mm 0.00 in0.0 mm 0.13 in3.3 mm
06:12 PM 75.1°F23.9°C 70.6°F21.4°C 86% 7.0 mph S11.3 kmh S 13.0 mph20.9 kmh 29.80 in1009.1 mb 0.00 in0.0 mm 0.00 in0.0 mm 0.13 in3.3 mm
06:14 PM 74.8°F23.8°C 70.7°F21.5°C 87% 6.0 mph S9.7 kmh S 13.0 mph20.9 kmh 29.80 in1009.1 mb 0.00 in0.0 mm 0.00 in0.0 mm 0.13 in3.3 mm
06:16 PM 74.6°F23.7°C 70.5°F21.4°C 87% 5.0 mph S8.0 kmh S 10.0 mph16.1 kmh 29.80 in1009.1 mb 0.00 in0.0 mm 0.00 in0.0 mm 0.13 in3.3 mm
06:18 PM 74.4°F23.6°C 70.6°F21.4°C 88% 6.0 mph S9.7 kmh S 12.0 mph19.3 kmh 29.80 in1009.1 mb 0.00 in0.0 mm 0.00 in0.0 mm 0.13 in3.3 mm
06:20 PM 74.2°F23.4°C 70.4°F21.3°C 88% 6.0 mph S9.7 kmh S 12.0 mph19.3 kmh 29.81 in1009.5 mb 0.00 in0.0 mm 0.00 in0.0 mm 0.13 in3.3 mm
06:22 PM 74.0°F23.3°C 70.2°F21.2°C 88% 6.0 mph S9.7 kmh S 14.0 mph22.5 kmh 29.81 in1009.5 mb 0.00 in0.0 mm 0.00 in0.0 mm 0.13 in3.3 mm
06:24 PM 74.0°F23.3°C 70.6°F21.4°C 89% 7.0 mph S11.3 kmh S 14.0 mph22.5 kmh 29.81 in1009.5 mb 0.00 in0.0 mm 0.00 in0.0 mm 0.13 in3.3 mm
06:26 PM 73.8°F23.2°C 70.4°F21.3°C 89% 7.0 mph S11.3 kmh S 14.0 mph22.5 kmh 29.81 in1009.5 mb 0.00 in0.0 mm 0.00 in0.0 mm 0.13 in3.3 mm
06:28 PM 73.7°F23.2°C 70.3°F21.3°C 89% 7.0 mph S11.3 kmh S 14.0 mph22.5 kmh 29.81 in1009.5 mb 0.00 in0.0 mm 0.00 in0.0 mm 0.13 in3.3 mm
06:30 PM 73.5°F23.1°C 70.4°F21.3°C 90% 7.0 mph S11.3 kmh S 14.0 mph22.5 kmh 29.82 in1009.8 mb 0.00 in0.0 mm 0.00 in0.0 mm 0.13 in3.3 mm
06:32 PM 73.4°F23.0°C 70.3°F21.3°C 90% 7.0 mph S11.3 kmh S 13.0 mph20.9 kmh 29.82 in1009.8 mb 0.00 in0.0 mm 0.00 in0.0 mm 0.13 in3.3 mm
06:34 PM 73.3°F22.9°C 70.5°F21.4°C 91% 7.0 mph S11.3 kmh S 13.0 mph20.9 kmh 29.81 in1009.5 mb 0.00 in0.0 mm 0.00 in0.0 mm 0.13 in3.3 mm
06:36 PM 73.2°F22.9°C 70.4°F21.3°C 91% 7.0 mph S11.3 kmh S 14.0 mph22.5 kmh 29.81 in1009.5 mb 0.00 in0.0 mm 0.00 in0.0 mm 0.13 in3.3 mm
06:38 PM 73.1°F22.8°C 70.3°F21.3°C 91% 7.0 mph S11.3 kmh S 14.0 mph22.5 kmh 29.81 in1009.5 mb 0.00 in0.0 mm 0.00 in0.0 mm 0.13 in3.3 mm
06:40 PM 73.0°F22.8°C 70.2°F21.2°C 91% 7.0 mph S11.3 kmh S 14.0 mph22.5 kmh 29.81 in1009.5 mb 0.00 in0.0 mm 0.00 in0.0 mm 0.13 in3.3 mm
06:42 PM 72.9°F22.7°C 70.4°F21.3°C 92% 7.0 mph S11.3 kmh S 14.0 mph22.5 kmh 29.81 in1009.5 mb 0.00 in0.0 mm 0.00 in0.0 mm 0.13 in3.3 mm
06:44 PM 72.9°F22.7°C 70.4°F21.3°C 92% 8.0 mph S12.9 kmh S 15.0 mph24.1 kmh 29.81 in1009.5 mb 0.00 in0.0 mm 0.00 in0.0 mm 0.13 in3.3 mm
06:46 PM 72.9°F22.7°C 70.4°F21.3°C 92% 8.0 mph S12.9 kmh S 15.0 mph24.1 kmh 29.81 in1009.5 mb 0.00 in0.0 mm 0.00 in0.0 mm 0.13 in3.3 mm
06:48 PM 72.9°F22.7°C 70.4°F21.3°C 92% 8.0 mph S12.9 kmh S 15.0 mph24.1 kmh 29.81 in1009.5 mb 0.00 in0.0 mm 0.00 in0.0 mm 0.13 in3.3 mm
06:50 PM 72.9°F22.7°C 70.4°F21.3°C 92% 8.0 mph S12.9 kmh S 15.0 mph24.1 kmh 29.81 in1009.5 mb 0.00 in0.0 mm 0.00 in0.0 mm 0.13 in3.3 mm
06:52 PM 72.8°F22.7°C 70.3°F21.3°C 92% 8.0 mph S12.9 kmh S 15.0 mph24.1 kmh 29.81 in1009.5 mb 0.00 in0.0 mm 0.00 in0.0 mm 0.13 in3.3 mm
06:54 PM 72.9°F22.7°C 70.4°F21.3°C 92% 8.0 mph S12.9 kmh S 14.0 mph22.5 kmh 29.81 in1009.5 mb 0.00 in0.0 mm 0.00 in0.0 mm 0.13 in3.3 mm
06:56 PM 72.8°F22.7°C 70.3°F21.3°C 92% 8.0 mph S12.9 kmh S 14.0 mph22.5 kmh 29.81 in1009.5 mb 0.00 in0.0 mm 0.00 in0.0 mm 0.13 in3.3 mm
06:58 PM 72.8°F22.7°C 70.3°F21.3°C 92% 9.0 mph S14.5 kmh S 15.0 mph24.1 kmh 29.81 in1009.5 mb 0.00 in0.0 mm 0.00 in0.0 mm 0.13 in3.3 mm
07:00 PM 72.8°F22.7°C 70.3°F21.3°C 92% 9.0 mph S14.5 kmh S 15.0 mph24.1 kmh 29.81 in1009.5 mb 0.00 in0.0 mm 0.00 in0.0 mm 0.13 in3.3 mm
07:02 PM 72.8°F22.7°C 70.3°F21.3°C 92% 9.0 mph S14.5 kmh S 15.0 mph24.1 kmh 29.81 in1009.5 mb 0.00 in0.0 mm 0.00 in0.0 mm 0.13 in3.3 mm
07:04 PM 72.8°F22.7°C 70.7°F21.5°C 93% 9.0 mph S14.5 kmh S 15.0 mph24.1 kmh 29.81 in1009.5 mb 0.00 in0.0 mm 0.00 in0.0 mm 0.13 in3.3 mm
07:06 PM 72.8°F22.7°C 70.7°F21.5°C 93% 9.0 mph S14.5 kmh S 15.0 mph24.1 kmh 29.81 in1009.5 mb 0.00 in0.0 mm 0.00 in0.0 mm 0.13 in3.3 mm
07:08 PM 72.8°F22.7°C 70.7°F21.5°C 93% 8.0 mph S12.9 kmh S 15.0 mph24.1 kmh 29.81 in1009.5 mb 0.00 in0.0 mm 0.00 in0.0 mm 0.13 in3.3 mm
07:10 PM 72.7°F22.6°C 70.6°F21.4°C 93% 9.0 mph S14.5 kmh S 15.0 mph24.1 kmh 29.81 in1009.5 mb 0.00 in0.0 mm 0.00 in0.0 mm 0.13 in3.3 mm
07:12 PM 72.7°F22.6°C 70.6°F21.4°C 93% 8.0 mph S12.9 kmh S 15.0 mph24.1 kmh 29.82 in1009.8 mb 0.00 in0.0 mm 0.00 in0.0 mm 0.13 in3.3 mm
07:14 PM 72.7°F22.6°C 70.6°F21.4°C 93% 8.0 mph S12.9 kmh S 13.0 mph20.9 kmh 29.82 in1009.8 mb 0.00 in0.0 mm 0.00 in0.0 mm 0.13 in3.3 mm
07:16 PM 72.7°F22.6°C 70.6°F21.4°C 93% 7.0 mph S11.3 kmh S 15.0 mph24.1 kmh 29.82 in1009.8 mb 0.00 in0.0 mm 0.00 in0.0 mm 0.13 in3.3 mm
07:18 PM 72.7°F22.6°C 70.6°F21.4°C 93% 7.0 mph S11.3 kmh S 15.0 mph24.1 kmh 29.82 in1009.8 mb 0.00 in0.0 mm 0.00 in0.0 mm 0.13 in3.3 mm
07:20 PM 72.7°F22.6°C 70.6°F21.4°C 93% 7.0 mph S11.3 kmh S 15.0 mph24.1 kmh 29.82 in1009.8 mb 0.00 in0.0 mm 0.00 in0.0 mm 0.13 in3.3 mm
07:22 PM 72.6°F22.6°C 70.5°F21.4°C 93% 7.0 mph S11.3 kmh S 15.0 mph24.1 kmh 29.82 in1009.8 mb 0.00 in0.0 mm 0.00 in0.0 mm 0.13 in3.3 mm
07:24 PM 72.6°F22.6°C 70.5°F21.4°C 93% 7.0 mph S11.3 kmh S 15.0 mph24.1 kmh 29.82 in1009.8 mb 0.00 in0.0 mm 0.00 in0.0 mm 0.13 in3.3 mm
07:26 PM 72.6°F22.6°C 70.5°F21.4°C 93% 7.0 mph S11.3 kmh S 13.0 mph20.9 kmh 29.82 in1009.8 mb 0.00 in0.0 mm 0.00 in0.0 mm 0.13 in3.3 mm
07:28 PM 72.7°F22.6°C 70.6°F21.4°C 93% 7.0 mph S11.3 kmh S 13.0 mph20.9 kmh 29.82 in1009.8 mb 0.00 in0.0 mm 0.00 in0.0 mm 0.13 in3.3 mm
07:30 PM 72.6°F22.6°C 70.5°F21.4°C 93% 7.0 mph S11.3 kmh S 13.0 mph20.9 kmh 29.82 in1009.8 mb 0.00 in0.0 mm 0.00 in0.0 mm 0.13 in3.3 mm
07:32 PM 72.6°F22.6°C 70.5°F21.4°C 93% 7.0 mph S11.3 kmh S 13.0 mph20.9 kmh 29.82 in1009.8 mb 0.00 in0.0 mm 0.00 in0.0 mm 0.13 in3.3 mm
07:34 PM 72.6°F22.6°C 70.5°F21.4°C 93% 7.0 mph S11.3 kmh S 13.0 mph20.9 kmh 29.82 in1009.8 mb 0.00 in0.0 mm 0.00 in0.0 mm 0.13 in3.3 mm
07:36 PM 72.6°F22.6°C 70.5°F21.4°C 93% 7.0 mph S11.3 kmh S 14.0 mph22.5 kmh 29.82 in1009.8 mb 0.00 in0.0 mm 0.00 in0.0 mm 0.13 in3.3 mm
07:38 PM 72.6°F22.6°C 70.5°F21.4°C 93% 7.0 mph S11.3 kmh S 14.0 mph22.5 kmh 29.83 in1010.2 mb 0.00 in0.0 mm 0.00 in0.0 mm 0.13 in3.3 mm
07:40 PM 72.6°F22.6°C 70.5°F21.4°C 93% 6.0 mph S9.7 kmh S 14.0 mph22.5 kmh 29.82 in1009.8 mb 0.00 in0.0 mm 0.00 in0.0 mm 0.13 in3.3 mm
07:42 PM 72.6°F22.6°C 70.5°F21.4°C 93% 7.0 mph S11.3 kmh S 14.0 mph22.5 kmh 29.82 in1009.8 mb 0.00 in0.0 mm 0.00 in0.0 mm 0.13 in3.3 mm
07:44 PM 72.6°F22.6°C 70.5°F21.4°C 93% 7.0 mph S11.3 kmh S 14.0 mph22.5 kmh 29.82 in1009.8 mb 0.00 in0.0 mm 0.00 in0.0 mm 0.13 in3.3 mm
07:46 PM 72.6°F22.6°C 70.5°F21.4°C 93% 7.0 mph S11.3 kmh S 14.0 mph22.5 kmh 29.82 in1009.8 mb 0.00 in0.0 mm 0.00 in0.0 mm 0.13 in3.3 mm
07:48 PM 72.6°F22.6°C 70.5°F21.4°C 93% 7.0 mph S11.3 kmh S 14.0 mph22.5 kmh 29.83 in1010.2 mb 0.00 in0.0 mm 0.00 in0.0 mm 0.13 in3.3 mm
07:50 PM 72.6°F22.6°C 70.5°F21.4°C 93% 7.0 mph S11.3 kmh S 14.0 mph22.5 kmh 29.83 in1010.2 mb 0.00 in0.0 mm 0.00 in0.0 mm 0.13 in3.3 mm
07:52 PM 72.6°F22.6°C 70.5°F21.4°C 93% 7.0 mph S11.3 kmh S 14.0 mph22.5 kmh 29.82 in1009.8 mb 0.00 in0.0 mm 0.00 in0.0 mm 0.13 in3.3 mm
07:54 PM 72.6°F22.6°C 70.5°F21.4°C 93% 7.0 mph S11.3 kmh S 15.0 mph24.1 kmh 29.82 in1009.8 mb 0.00 in0.0 mm 0.00 in0.0 mm 0.13 in3.3 mm
07:56 PM 72.6°F22.6°C 70.5°F21.4°C 93% 6.0 mph S9.7 kmh S 15.0 mph24.1 kmh 29.82 in1009.8 mb 0.00 in0.0 mm 0.00 in0.0 mm 0.13 in3.3 mm
07:58 PM 72.6°F22.6°C 70.5°F21.4°C 93% 6.0 mph S9.7 kmh S 15.0 mph24.1 kmh 29.82 in1009.8 mb 0.00 in0.0 mm 0.00 in0.0 mm 0.13 in3.3 mm
08:00 PM 72.5°F22.5°C 70.4°F21.3°C 93% 6.0 mph S9.7 kmh S 15.0 mph24.1 kmh 29.82 in1009.8 mb 0.00 in0.0 mm 0.00 in0.0 mm 0.13 in3.3 mm
08:02 PM 72.5°F22.5°C 70.4°F21.3°C 93% 6.0 mph S9.7 kmh S 15.0 mph24.1 kmh 29.83 in1010.2 mb 0.00 in0.0 mm 0.00 in0.0 mm 0.13 in3.3 mm
08:04 PM 72.5°F22.5°C 70.4°F21.3°C 93% 6.0 mph S9.7 kmh S 14.0 mph22.5 kmh 29.82 in1009.8 mb 0.00 in0.0 mm 0.00 in0.0 mm 0.13 in3.3 mm
08:06 PM 72.5°F22.5°C 70.4°F21.3°C 93% 6.0 mph S9.7 kmh S 14.0 mph22.5 kmh 29.82 in1009.8 mb 0.00 in0.0 mm 0.00 in0.0 mm 0.13 in3.3 mm
08:08 PM 72.5°F22.5°C 70.4°F21.3°C 93% 6.0 mph S9.7 kmh S 10.0 mph16.1 kmh 29.83 in1010.2 mb 0.00 in0.0 mm 0.00 in0.0 mm 0.13 in3.3 mm
08:10 PM 72.5°F22.5°C 70.4°F21.3°C 93% 6.0 mph S9.7 kmh S 10.0 mph16.1 kmh 29.83 in1010.2 mb 0.00 in0.0 mm 0.00 in0.0 mm 0.13 in3.3 mm
08:12 PM 72.4°F22.4°C 70.3°F21.3°C 93% 6.0 mph S9.7 kmh S 10.0 mph16.1 kmh 29.83 in1010.2 mb 0.00 in0.0 mm 0.00 in0.0 mm 0.13 in3.3 mm
08:14 PM 72.5°F22.5°C 70.4°F21.3°C 93% 6.0 mph S9.7 kmh S 10.0 mph16.1 kmh 29.83 in1010.2 mb 0.00 in0.0 mm 0.00 in0.0 mm 0.13 in3.3 mm
08:16 PM 72.4°F22.4°C 70.3°F21.3°C 93% 6.0 mph S9.7 kmh S 10.0 mph16.1 kmh 29.83 in1010.2 mb 0.00 in0.0 mm 0.00 in0.0 mm 0.13 in3.3 mm
08:18 PM 72.4°F22.4°C 70.3°F21.3°C 93% 6.0 mph S9.7 kmh S 10.0 mph16.1 kmh 29.83 in1010.2 mb 0.00 in0.0 mm 0.00 in0.0 mm 0.13 in3.3 mm
08:20 PM 72.4°F22.4°C 70.3°F21.3°C 93% 6.0 mph S9.7 kmh S 14.0 mph22.5 kmh 29.83 in1010.2 mb 0.00 in0.0 mm 0.00 in0.0 mm 0.13 in3.3 mm
08:22 PM 72.4°F22.4°C 70.3°F21.3°C 93% 6.0 mph S9.7 kmh S 14.0 mph22.5 kmh 29.83 in1010.2 mb 0.00 in0.0 mm 0.00 in0.0 mm 0.13 in3.3 mm
08:24 PM 72.4°F22.4°C 70.3°F21.3°C 93% 6.0 mph S9.7 kmh S 14.0 mph22.5 kmh 29.83 in1010.2 mb 0.00 in0.0 mm 0.00 in0.0 mm 0.13 in3.3 mm
08:26 PM 72.4°F22.4°C 70.3°F21.3°C 93% 6.0 mph S9.7 kmh S 14.0 mph22.5 kmh 29.84 in1010.5 mb 0.00 in0.0 mm 0.00 in0.0 mm 0.13 in3.3 mm
08:28 PM 72.4°F22.4°C 70.3°F21.3°C 93% 6.0 mph S9.7 kmh S 14.0 mph22.5 kmh 29.84 in1010.5 mb 0.00 in0.0 mm 0.00 in0.0 mm 0.13 in3.3 mm
08:30 PM 72.4°F22.4°C 70.3°F21.3°C 93% 6.0 mph S9.7 kmh S 13.0 mph20.9 kmh 29.84 in1010.5 mb 0.00 in0.0 mm 0.00 in0.0 mm 0.13 in3.3 mm
08:32 PM 72.4°F22.4°C 70.6°F21.4°C 94% 6.0 mph S9.7 kmh S 13.0 mph20.9 kmh 29.84 in1010.5 mb 0.00 in0.0 mm 0.00 in0.0 mm 0.13 in3.3 mm
08:34 PM 72.4°F22.4°C 70.6°F21.4°C 94% 6.0 mph S9.7 kmh S 13.0 mph20.9 kmh 29.84 in1010.5 mb 0.00 in0.0 mm 0.00 in0.0 mm 0.13 in3.3 mm
08:36 PM 72.4°F22.4°C 70.6°F21.4°C 94% 6.0 mph S9.7 kmh S 11.0 mph17.7 kmh 29.84 in1010.5 mb 0.00 in0.0 mm 0.00 in0.0 mm 0.13 in3.3 mm
08:38 PM 72.3°F22.4°C 70.5°F21.4°C 94% 6.0 mph S9.7 kmh S 12.0 mph19.3 kmh 29.84 in1010.5 mb 0.00 in0.0 mm 0.00 in0.0 mm 0.13 in3.3 mm
08:40 PM 72.3°F22.4°C 70.5°F21.4°C 94% 6.0 mph S9.7 kmh S 12.0 mph19.3 kmh 29.84 in1010.5 mb 0.00 in0.0 mm 0.00 in0.0 mm 0.13 in3.3 mm
08:42 PM 72.3°F22.4°C 70.5°F21.4°C 94% 6.0 mph S9.7 kmh S 12.0 mph19.3 kmh 29.84 in1010.5 mb 0.00 in0.0 mm 0.00 in0.0 mm 0.13 in3.3 mm
08:44 PM 72.3°F22.4°C 70.5°F21.4°C 94% 6.0 mph S9.7 kmh S 12.0 mph19.3 kmh 29.84 in1010.5 mb 0.00 in0.0 mm 0.00 in0.0 mm 0.13 in3.3 mm
08:46 PM 72.3°F22.4°C 70.5°F21.4°C 94% 6.0 mph S9.7 kmh S 12.0 mph19.3 kmh 29.84 in1010.5 mb 0.00 in0.0 mm 0.00 in0.0 mm 0.13 in3.3 mm
08:48 PM 72.3°F22.4°C 70.5°F21.4°C 94% 6.0 mph S9.7 kmh S 12.0 mph19.3 kmh 29.84 in1010.5 mb 0.00 in0.0 mm 0.00 in0.0 mm 0.13 in3.3 mm
08:50 PM 72.2°F22.3°C 70.4°F21.3°C 94% 6.0 mph S9.7 kmh S 12.0 mph19.3 kmh 29.84 in1010.5 mb 0.00 in0.0 mm 0.00 in0.0 mm 0.13 in3.3 mm
08:52 PM 72.2°F22.3°C 70.4°F21.3°C 94% 6.0 mph S9.7 kmh S 12.0 mph19.3 kmh 29.84 in1010.5 mb 0.00 in0.0 mm 0.00 in0.0 mm 0.13 in3.3 mm
08:54 PM 72.2°F22.3°C 70.4°F21.3°C 94% 6.0 mph S9.7 kmh S 10.0 mph16.1 kmh 29.84 in1010.5 mb 0.00 in0.0 mm 0.00 in0.0 mm 0.13 in3.3 mm
08:56 PM 72.2°F22.3°C 70.4°F21.3°C 94% 6.0 mph S9.7 kmh S 10.0 mph16.1 kmh 29.84 in1010.5 mb 0.00 in0.0 mm 0.00 in0.0 mm 0.13 in3.3 mm
08:58 PM 72.2°F22.3°C 70.4°F21.3°C 94% 6.0 mph S9.7 kmh S 10.0 mph16.1 kmh 29.84 in1010.5 mb 0.00 in0.0 mm 0.00 in0.0 mm 0.13 in3.3 mm
09:00 PM 72.2°F22.3°C 70.4°F21.3°C 94% 5.0 mph S8.0 kmh S 10.0 mph16.1 kmh 29.84 in1010.5 mb 0.00 in0.0 mm 0.00 in0.0 mm 0.13 in3.3 mm
09:02 PM 72.2°F22.3°C 70.4°F21.3°C 94% 5.0 mph S8.0 kmh S 10.0 mph16.1 kmh 29.84 in1010.5 mb 0.00 in0.0 mm 0.00 in0.0 mm 0.13 in3.3 mm
09:04 PM 72.1°F22.3°C 70.3°F21.3°C 94% 4.0 mph S6.4 kmh S 10.0 mph16.1 kmh 29.84 in1010.5 mb 0.00 in0.0 mm 0.00 in0.0 mm 0.13 in3.3 mm
09:06 PM 72.1°F22.3°C 70.3°F21.3°C 94% 4.0 mph S6.4 kmh S 9.0 mph14.5 kmh 29.84 in1010.5 mb 0.00 in0.0 mm 0.00 in0.0 mm 0.13 in3.3 mm
09:08 PM 72.1°F22.3°C 70.3°F21.3°C 94% 4.0 mph S6.4 kmh S 9.0 mph14.5 kmh 29.84 in1010.5 mb 0.00 in0.0 mm 0.00 in0.0 mm 0.13 in3.3 mm
09:10 PM 72.1°F22.3°C 70.3°F21.3°C 94% 4.0 mph S6.4 kmh S 11.0 mph17.7 kmh 29.84 in1010.5 mb 0.00 in0.0 mm 0.00 in0.0 mm 0.13 in3.3 mm
09:12 PM 72.1°F22.3°C 70.3°F21.3°C 94% 5.0 mph S8.0 kmh S 11.0 mph17.7 kmh 29.84 in1010.5 mb 0.00 in0.0 mm 0.00 in0.0 mm 0.13 in3.3 mm
09:14 PM 72.1°F22.3°C 70.3°F21.3°C 94% 5.0 mph S8.0 kmh S 11.0 mph17.7 kmh 29.84 in1010.5 mb 0.00 in0.0 mm 0.00 in0.0 mm 0.13 in3.3 mm
09:16 PM 72.1°F22.3°C 70.3°F21.3°C 94% 5.0 mph SSW8.0 kmh SSW 11.0 mph17.7 kmh 29.84 in1010.5 mb 0.00 in0.0 mm 0.00 in0.0 mm 0.13 in3.3 mm
09:18 PM 72.1°F22.3°C 70.3°F21.3°C 94% 5.0 mph SSW8.0 kmh SSW 11.0 mph17.7 kmh 29.84 in1010.5 mb 0.00 in0.0 mm 0.00 in0.0 mm 0.13 in3.3 mm
09:20 PM 72.0°F22.2°C 70.2°F21.2°C 94% 5.0 mph SSW8.0 kmh SSW 13.0 mph20.9 kmh 29.84 in1010.5 mb 0.00 in0.0 mm 0.00 in0.0 mm 0.13 in3.3 mm
09:22 PM 72.0°F22.2°C 70.2°F21.2°C 94% 5.0 mph SSW8.0 kmh SSW 13.0 mph20.9 kmh 29.84 in1010.5 mb 0.00 in0.0 mm 0.00 in0.0 mm 0.13 in3.3 mm
09:24 PM 72.0°F22.2°C 70.2°F21.2°C 94% 5.0 mph SSW8.0 kmh SSW 13.0 mph20.9 kmh 29.84 in1010.5 mb 0.00 in0.0 mm 0.00 in0.0 mm 0.13 in3.3 mm
09:26 PM 72.0°F22.2°C 70.2°F21.2°C 94% 5.0 mph SSW8.0 kmh SSW 13.0 mph20.9 kmh 29.84 in1010.5 mb 0.00 in0.0 mm 0.00 in0.0 mm 0.13 in3.3 mm
09:28 PM 72.0°F22.2°C 70.2°F21.2°C 94% 5.0 mph SSW8.0 kmh SSW 13.0 mph20.9 kmh 29.84 in1010.5 mb 0.00 in0.0 mm 0.00 in0.0 mm 0.13 in3.3 mm
09:30 PM 72.0°F22.2°C 70.2°F21.2°C 94% 5.0 mph S8.0 kmh S 10.0 mph16.1 kmh 29.84 in1010.5 mb 0.00 in0.0 mm 0.00 in0.0 mm 0.13 in3.3 mm
09:32 PM 72.0°F22.2°C 70.2°F21.2°C 94% 5.0 mph S8.0 kmh S 10.0 mph16.1 kmh 29.84 in1010.5 mb 0.00 in0.0 mm 0.00 in0.0 mm 0.13 in3.3 mm
09:34 PM 72.0°F22.2°C 70.2°F21.2°C 94% 5.0 mph S8.0 kmh S 10.0 mph16.1 kmh 29.84 in1010.5 mb 0.00 in0.0 mm 0.00 in0.0 mm 0.13 in3.3 mm
09:36 PM 72.0°F22.2°C 70.2°F21.2°C 94% 5.0 mph S8.0 kmh S 10.0 mph16.1 kmh 29.84 in1010.5 mb 0.00 in0.0 mm 0.00 in0.0 mm 0.13 in3.3 mm
09:38 PM 72.0°F22.2°C 70.2°F21.2°C 94% 5.0 mph S8.0 kmh S 10.0 mph16.1 kmh 29.84 in1010.5 mb 0.00 in0.0 mm 0.00 in0.0 mm 0.13 in3.3 mm
09:40 PM 72.0°F22.2°C 70.2°F21.2°C 94% 5.0 mph S8.0 kmh S 12.0 mph19.3 kmh 29.84 in1010.5 mb 0.00 in0.0 mm 0.00 in0.0 mm 0.13 in3.3 mm
09:42 PM 72.0°F22.2°C 70.2°F21.2°C 94% 5.0 mph S8.0 kmh S 12.0 mph19.3 kmh 29.84 in1010.5 mb 0.00 in0.0 mm 0.00 in0.0 mm 0.13 in3.3 mm
09:44 PM 71.9°F22.2°C 70.1°F21.2°C 94% 5.0 mph SSW8.0 kmh SSW 12.0 mph19.3 kmh 29.84 in1010.5 mb 0.00 in0.0 mm 0.00 in0.0 mm 0.13 in3.3 mm
09:46 PM 71.9°F22.2°C 70.1°F21.2°C 94% 5.0 mph SSW8.0 kmh SSW 12.0 mph19.3 kmh 29.84 in1010.5 mb 0.00 in0.0 mm 0.00 in0.0 mm 0.13 in3.3 mm
09:48 PM 71.9°F22.2°C 70.1°F21.2°C 94% 5.0 mph SSW8.0 kmh SSW 12.0 mph19.3 kmh 29.84 in1010.5 mb 0.00 in0.0 mm 0.00 in0.0 mm 0.13 in3.3 mm
09:50 PM 71.9°F22.2°C 70.1°F21.2°C 94% 5.0 mph SSW8.0 kmh SSW 11.0 mph17.7 kmh 29.84 in1010.5 mb 0.00 in0.0 mm 0.00 in0.0 mm 0.13 in3.3 mm
09:52 PM 71.9°F22.2°C 70.1°F21.2°C 94% 5.0 mph SSW8.0 kmh SSW 11.0 mph17.7 kmh 29.84 in1010.5 mb 0.00 in0.0 mm 0.00 in0.0 mm 0.13 in3.3 mm
09:54 PM 71.9°F22.2°C 70.1°F21.2°C 94% 4.0 mph SSW6.4 kmh SSW 11.0 mph17.7 kmh 29.84 in1010.5 mb 0.00 in0.0 mm 0.00 in0.0 mm 0.13 in3.3 mm
09:56 PM 71.9°F22.2°C 70.1°F21.2°C 94% 4.0 mph SSW6.4 kmh SSW 11.0 mph17.7 kmh 29.84 in1010.5 mb 0.00 in0.0 mm 0.00 in0.0 mm 0.13 in3.3 mm
09:58 PM 71.8°F22.1°C 70.0°F21.1°C 94% 4.0 mph SSW6.4 kmh SSW 11.0 mph17.7 kmh 29.84 in1010.5 mb 0.00 in0.0 mm 0.00 in0.0 mm 0.13 in3.3 mm
10:00 PM 71.8°F22.1°C 70.0°F21.1°C 94% 4.0 mph SSW6.4 kmh SSW 9.0 mph14.5 kmh 29.84 in1010.5 mb 0.00 in0.0 mm 0.00 in0.0 mm 0.13 in3.3 mm
10:02 PM 71.8°F22.1°C 70.0°F21.1°C 94% 4.0 mph SSW6.4 kmh SSW 11.0 mph17.7 kmh 29.84 in1010.5 mb 0.00 in0.0 mm 0.00 in0.0 mm 0.13 in3.3 mm
10:04 PM 71.8°F22.1°C 70.0°F21.1°C 94% 5.0 mph SSW8.0 kmh SSW 11.0 mph17.7 kmh 29.84 in1010.5 mb 0.00 in0.0 mm 0.00 in0.0 mm 0.13 in3.3 mm
10:06 PM 71.8°F22.1°C 70.0°F21.1°C 94% 5.0 mph SSW8.0 kmh SSW 11.0 mph17.7 kmh 29.84 in1010.5 mb 0.00 in0.0 mm 0.00 in0.0 mm 0.13 in3.3 mm
10:08 PM 71.8°F22.1°C 70.0°F21.1°C 94% 5.0 mph SSW8.0 kmh SSW 11.0 mph17.7 kmh 29.84 in1010.5 mb 0.00 in0.0 mm 0.00 in0.0 mm 0.13 in3.3 mm
10:10 PM 71.9°F22.2°C 70.1°F21.2°C 94% 5.0 mph SSW8.0 kmh SSW 11.0 mph17.7 kmh 29.84 in1010.5 mb 0.00 in0.0 mm 0.00 in0.0 mm 0.13 in3.3 mm
10:12 PM 71.9°F22.2°C 70.1°F21.2°C 94% 5.0 mph SSW8.0 kmh SSW 11.0 mph17.7 kmh 29.84 in1010.5 mb 0.00 in0.0 mm 0.00 in0.0 mm 0.13 in3.3 mm
10:14 PM 71.8°F22.1°C 70.0°F21.1°C 94% 5.0 mph SSW8.0 kmh SSW 11.0 mph17.7 kmh 29.84 in1010.5 mb 0.00 in0.0 mm 0.00 in0.0 mm 0.13 in3.3 mm
10:16 PM 71.8°F22.1°C 70.0°F21.1°C 94% 5.0 mph S8.0 kmh S 9.0 mph14.5 kmh 29.84 in1010.5 mb 0.00 in0.0 mm 0.00 in0.0 mm 0.13 in3.3 mm
10:18 PM 71.8°F22.1°C 70.0°F21.1°C 94% 5.0 mph SSW8.0 kmh SSW 9.0 mph14.5 kmh 29.84 in1010.5 mb 0.00 in0.0 mm 0.00 in0.0 mm 0.13 in3.3 mm
10:20 PM 71.8°F22.1°C 70.0°F21.1°C 94% 5.0 mph SSW8.0 kmh SSW 11.0 mph17.7 kmh 29.84 in1010.5 mb 0.00 in0.0 mm 0.00 in0.0 mm 0.13 in3.3 mm
10:22 PM 71.8°F22.1°C 70.0°F21.1°C 94% 5.0 mph SSW8.0 kmh SSW 11.0 mph17.7 kmh 29.84 in1010.5 mb 0.00 in0.0 mm 0.00 in0.0 mm 0.13 in3.3 mm
10:24 PM 71.8°F22.1°C 70.0°F21.1°C 94% 5.0 mph SSW8.0 kmh SSW 11.0 mph17.7 kmh 29.84 in1010.5 mb 0.00 in0.0 mm 0.00 in0.0 mm 0.13 in3.3 mm
10:26 PM 71.8°F22.1°C 70.0°F21.1°C 94% 5.0 mph SSW8.0 kmh SSW 11.0 mph17.7 kmh 29.84 in1010.5 mb 0.00 in0.0 mm 0.00 in0.0 mm 0.13 in3.3 mm
10:28 PM 71.7°F22.1°C 69.9°F21.1°C 94% 5.0 mph SSW8.0 kmh SSW 11.0 mph17.7 kmh 29.84 in1010.5 mb 0.00 in0.0 mm 0.00 in0.0 mm 0.13 in3.3 mm
10:30 PM 71.7°F22.1°C 69.9°F21.1°C 94% 5.0 mph SSW8.0 kmh SSW 11.0 mph17.7 kmh 29.83 in1010.2 mb 0.00 in0.0 mm 0.00 in0.0 mm 0.13 in3.3 mm
10:32 PM 71.6°F22.0°C 69.8°F21.0°C 94% 5.0 mph SSW8.0 kmh SSW 12.0 mph19.3 kmh 29.84 in1010.5 mb 0.00 in0.0 mm 0.00 in0.0 mm 0.13 in3.3 mm
10:34 PM 71.6°F22.0°C 69.8°F21.0°C 94% 5.0 mph SSW8.0 kmh SSW 12.0 mph19.3 kmh 29.84 in1010.5 mb 0.00 in0.0 mm 0.00 in0.0 mm 0.13 in3.3 mm
10:36 PM 71.5°F21.9°C 69.7°F20.9°C 94% 5.0 mph S8.0 kmh S 12.0 mph19.3 kmh 29.84 in1010.5 mb 0.00 in0.0 mm 0.00 in0.0 mm 0.13 in3.3 mm
10:38 PM 71.5°F21.9°C 69.7°F20.9°C 94% 5.0 mph S8.0 kmh S 12.0 mph19.3 kmh 29.84 in1010.5 mb 0.00 in0.0 mm 0.00 in0.0 mm 0.13 in3.3 mm
10:40 PM 71.5°F21.9°C 69.7°F20.9°C 94% 5.0 mph S8.0 kmh S 12.0 mph19.3 kmh 29.84 in1010.5 mb 0.00 in0.0 mm 0.00 in0.0 mm 0.13 in3.3 mm
10:42 PM 71.5°F21.9°C 69.7°F20.9°C 94% 5.0 mph S8.0 kmh S 12.0 mph19.3 kmh 29.84 in1010.5 mb 0.00 in0.0 mm 0.00 in0.0 mm 0.13 in3.3 mm
10:44 PM 71.4°F21.9°C 69.6°F20.9°C 94% 5.0 mph SSW8.0 kmh SSW 12.0 mph19.3 kmh 29.84 in1010.5 mb 0.00 in0.0 mm 0.00 in0.0 mm 0.13 in3.3 mm
10:46 PM 71.4°F21.9°C 69.6°F20.9°C 94% 5.0 mph SW8.0 kmh SW 10.0 mph16.1 kmh 29.85 in1010.8 mb 0.00 in0.0 mm 0.00 in0.0 mm 0.13 in3.3 mm
10:48 PM 71.3°F21.8°C 69.5°F20.8°C 94% 4.0 mph SW6.4 kmh SW 10.0 mph16.1 kmh 29.85 in1010.8 mb 0.00 in0.0 mm 0.00 in0.0 mm 0.13 in3.3 mm
10:50 PM 70.9°F21.6°C 69.1°F20.6°C 94% 5.0 mph WSW8.0 kmh WSW 11.0 mph17.7 kmh 29.85 in1010.8 mb 0.00 in0.0 mm 0.00 in0.0 mm 0.13 in3.3 mm
10:52 PM 70.5°F21.4°C 68.4°F20.2°C 93% 4.0 mph WSW6.4 kmh WSW 11.0 mph17.7 kmh 29.85 in1010.8 mb 0.00 in0.0 mm 0.00 in0.0 mm 0.13 in3.3 mm
10:54 PM 70.2°F21.2°C 68.4°F20.2°C 94% 4.0 mph WSW6.4 kmh WSW 11.0 mph17.7 kmh 29.85 in1010.8 mb 0.00 in0.0 mm 0.00 in0.0 mm 0.13 in3.3 mm
10:56 PM 69.9°F21.1°C 67.8°F19.9°C 93% 4.0 mph WSW6.4 kmh WSW 11.0 mph17.7 kmh 29.84 in1010.5 mb 0.00 in0.0 mm 0.00 in0.0 mm 0.13 in3.3 mm
10:58 PM 69.7°F20.9°C 67.9°F19.9°C 94% 4.0 mph WSW6.4 kmh WSW 11.0 mph17.7 kmh 29.84 in1010.5 mb 0.00 in0.0 mm 0.00 in0.0 mm 0.13 in3.3 mm
11:00 PM 69.5°F20.8°C 67.7°F19.8°C 94% 4.0 mph WSW6.4 kmh WSW 10.0 mph16.1 kmh 29.84 in1010.5 mb 0.00 in0.0 mm 0.00 in0.0 mm 0.13 in3.3 mm
11:02 PM 69.4°F20.8°C 67.6°F19.8°C 94% 3.0 mph SW4.8 kmh SW 10.0 mph16.1 kmh 29.85 in1010.8 mb 0.00 in0.0 mm 0.00 in0.0 mm 0.13 in3.3 mm
11:04 PM 69.4°F20.8°C 67.6°F19.8°C 94% 3.0 mph SW4.8 kmh SW 10.0 mph16.1 kmh 29.85 in1010.8 mb 0.00 in0.0 mm 0.00 in0.0 mm 0.13 in3.3 mm
11:06 PM 69.3°F20.7°C 67.5°F19.7°C 94% 4.0 mph SW6.4 kmh SW 10.0 mph16.1 kmh 29.85 in1010.8 mb 0.00 in0.0 mm 0.00 in0.0 mm 0.13 in3.3 mm
11:08 PM 69.3°F20.7°C 67.5°F19.7°C 94% 4.0 mph SW6.4 kmh SW 10.0 mph16.1 kmh 29.84 in1010.5 mb 0.00 in0.0 mm 0.00 in0.0 mm 0.13 in3.3 mm
11:10 PM 69.3°F20.7°C 67.5°F19.7°C 94% 4.0 mph SW6.4 kmh SW 10.0 mph16.1 kmh 29.84 in1010.5 mb 0.00 in0.0 mm 0.00 in0.0 mm 0.13 in3.3 mm
11:12 PM 69.2°F20.7°C 67.4°F19.7°C 94% 4.0 mph SW6.4 kmh SW 10.0 mph16.1 kmh 29.84 in1010.5 mb 0.00 in0.0 mm 0.00 in0.0 mm 0.13 in3.3 mm
11:14 PM 69.2°F20.7°C 67.4°F19.7°C 94% 4.0 mph SW6.4 kmh SW 10.0 mph16.1 kmh 29.84 in1010.5 mb 0.00 in0.0 mm 0.00 in0.0 mm 0.13 in3.3 mm
11:16 PM 69.2°F20.7°C 67.4°F19.7°C 94% 3.0 mph SW4.8 kmh SW 9.0 mph14.5 kmh 29.84 in1010.5 mb 0.00 in0.0 mm 0.00 in0.0 mm 0.13 in3.3 mm
11:18 PM 69.2°F20.7°C 67.4°F19.7°C 94% 3.0 mph SW4.8 kmh SW 9.0 mph14.5 kmh 29.84 in1010.5 mb 0.00 in0.0 mm 0.00 in0.0 mm 0.13 in3.3 mm
11:20 PM 69.2°F20.7°C 67.4°F19.7°C 94% 3.0 mph SW4.8 kmh SW 9.0 mph14.5 kmh 29.84 in1010.5 mb 0.00 in0.0 mm 0.00 in0.0 mm 0.13 in3.3 mm
11:22 PM 69.1°F20.6°C 67.3°F19.6°C 94% 3.0 mph SW4.8 kmh SW 7.0 mph11.3 kmh 29.84 in1010.5 mb 0.00 in0.0 mm 0.00 in0.0 mm 0.13 in3.3 mm
11:24 PM 69.1°F20.6°C 67.3°F19.6°C 94% 3.0 mph SW4.8 kmh SW 7.0 mph11.3 kmh 29.84 in1010.5 mb 0.00 in0.0 mm 0.00 in0.0 mm 0.13 in3.3 mm
11:26 PM 69.1°F20.6°C 67.6°F19.8°C 95% 3.0 mph SW4.8 kmh SW 7.0 mph11.3 kmh 29.84 in1010.5 mb 0.00 in0.0 mm 0.00 in0.0 mm 0.13 in3.3 mm
11:28 PM 69.0°F20.6°C 67.5°F19.7°C 95% 2.0 mph SW3.2 kmh SW 5.0 mph8.0 kmh 29.84 in1010.5 mb 0.00 in0.0 mm 0.00 in0.0 mm 0.13 in3.3 mm
11:30 PM 69.0°F20.6°C 67.5°F19.7°C 95% 2.0 mph SW3.2 kmh SW 5.0 mph8.0 kmh 29.84 in1010.5 mb 0.00 in0.0 mm 0.00 in0.0 mm 0.13 in3.3 mm
11:32 PM 69.0°F20.6°C 67.5°F19.7°C 95% 2.0 mph SW3.2 kmh SW 5.0 mph8.0 kmh 29.84 in1010.5 mb 0.00 in0.0 mm 0.00 in0.0 mm 0.13 in3.3 mm
11:34 PM 68.9°F20.5°C 67.4°F19.7°C 95% 2.0 mph SW3.2 kmh SW 5.0 mph8.0 kmh 29.84 in1010.5 mb 0.00 in0.0 mm 0.00 in0.0 mm 0.13 in3.3 mm
11:36 PM 68.9°F20.5°C 67.4°F19.7°C 95% 2.0 mph SSW3.2 kmh SSW 5.0 mph8.0 kmh 29.84 in1010.5 mb 0.00 in0.0 mm 0.00 in0.0 mm 0.13 in3.3 mm
11:38 PM 68.9°F20.5°C 67.4°F19.7°C 95% 2.0 mph SSW3.2 kmh SSW 5.0 mph8.0 kmh 29.84 in1010.5 mb 0.00 in0.0 mm 0.00 in0.0 mm 0.13 in3.3 mm
11:40 PM 68.9°F20.5°C 67.4°F19.7°C 95% 2.0 mph SSW3.2 kmh SSW 5.0 mph8.0 kmh 29.84 in1010.5 mb 0.00 in0.0 mm 0.00 in0.0 mm 0.13 in3.3 mm
11:42 PM 68.9°F20.5°C 67.4°F19.7°C 95% 3.0 mph SSW4.8 kmh SSW 5.0 mph8.0 kmh 29.84 in1010.5 mb 0.00 in0.0 mm 0.00 in0.0 mm 0.13 in3.3 mm
11:44 PM 68.9°F20.5°C 67.4°F19.7°C 95% 3.0 mph SSW4.8 kmh SSW 5.0 mph8.0 kmh 29.84 in1010.5 mb 0.00 in0.0 mm 0.00 in0.0 mm 0.13 in3.3 mm
11:46 PM 68.9°F20.5°C 67.4°F19.7°C 95% 3.0 mph SSW4.8 kmh SSW 5.0 mph8.0 kmh 29.84 in1010.5 mb 0.00 in0.0 mm 0.00 in0.0 mm 0.13 in3.3 mm
11:48 PM 68.8°F20.4°C 67.3°F19.6°C 95% 2.0 mph SSW3.2 kmh SSW 5.0 mph8.0 kmh 29.84 in1010.5 mb 0.00 in0.0 mm 0.00 in0.0 mm 0.13 in3.3 mm
11:50 PM 68.8°F20.4°C 67.3°F19.6°C 95% 2.0 mph SSW3.2 kmh SSW 5.0 mph8.0 kmh 29.84 in1010.5 mb 0.00 in0.0 mm 0.00 in0.0 mm 0.13 in3.3 mm
11:52 PM 68.8°F20.4°C 67.3°F19.6°C 95% 2.0 mph SW3.2 kmh SW 4.0 mph6.4 kmh 29.84 in1010.5 mb 0.00 in0.0 mm 0.00 in0.0 mm 0.13 in3.3 mm
11:54 PM 68.8°F20.4°C 67.3°F19.6°C 95% 2.0 mph SW3.2 kmh SW 4.0 mph6.4 kmh 29.84 in1010.5 mb 0.00 in0.0 mm 0.00 in0.0 mm 0.13 in3.3 mm
11:56 PM 68.8°F20.4°C 67.3°F19.6°C 95% 2.0 mph SW3.2 kmh SW 4.0 mph6.4 kmh 29.84 in1010.5 mb 0.00 in0.0 mm 0.00 in0.0 mm 0.13 in3.3 mm
11:58 PM 68.8°F20.4°C 67.3°F19.6°C 95% 2.0 mph SW3.2 kmh SW 5.0 mph8.0 kmh 29.84 in1010.5 mb 0.00 in0.0 mm 0.00 in0.0 mm 0.13 in3.3 mm